Another Hard Day at the Office Weather Stats

 
 
 

High monthly outside Temperature, 22.8 , °C
Low monthly outside Temperature, -1.0 , °C
High yearly outside Temperature, 30.9 , °C
Low yearly outside Temperature, -2.2 , °C

Low monthly barometer, 1001.1 , mb
High monthly barometer, 1028.0 , mb
Low yearly barometer, 975.0 , mb
High yearly barometer 1041.1 , mb

High wind speed, 25.0 , mph
Time of High wind speed, 21:37 , mph
High monthly wind speed, 47.0 , mph
High yearly wind speed, 55.0 , mph

 

 




3137
                    Temp     Hi    Low   Out    Dew  Wind  Wind   Wind    Hi    Hi   Wind   Heat    THW                Rain    Heat    Cool    In     In    In     In     In   In Air  Wind  Wind    ISS   Arc.
  Date    Time     Out   Temp   Temp   Hum    Pt. Speed   Dir    Run Speed   Dir  Chill  Index  Index   Bar    Rain  Rate    D-D     D-D    Temp   Hum    Dew   Heat    EMC Density  Samp   Tx   Recept  Int.
---------------------------------------------------------------------------------------------------------------------------------------------------------------------------------------------------------------
20/09/20   0:05   17.3   17.3   17.3    76   13.1  11.0     N   0.92  17.0   NNE   15.6   17.3   15.6  1014.2  0.00  0.00   0.003   0.000   35.6    32   16.3   36.3   6.13  .0702    113    1     99.1    5 
20/09/20   0:10   17.3   17.3   17.3    76   13.0   9.0     N   0.75  15.0    NE   16.3   17.3   16.3  1014.2  0.00  0.00   0.004   0.000   35.6    32   16.3   36.3   6.13  .0702    118    1    100.0    5 
20/09/20   0:15   17.3   17.3   17.3    77   13.2  12.0     N   1.00  23.0     E   15.2   17.3   15.2  1014.2  0.00  0.00   0.004   0.000   35.6    32   16.3   36.3   6.13  .0702    117    1    100.0    5 
20/09/20   0:20   17.3   17.3   17.3    77   13.3  11.0     N   0.92  22.0    NE   15.6   17.4   15.6  1014.1  0.00  0.00   0.003   0.000   35.6    32   16.3   36.3   6.13  .0702    117    1    100.0    5 
20/09/20   0:25   17.2   17.3   17.2    77   13.2  11.0     N   0.92  18.0     N   15.4   17.3   15.5  1014.1  0.00  0.00   0.004   0.000   35.6    31   15.8   36.1   5.93  .0702    116    1    100.0    5 
20/09/20   0:30   17.2   17.2   17.2    77   13.1  10.0     N   0.83  15.0     N   15.8   17.2   15.8  1014.1  0.00  0.00   0.004   0.000   35.6    31   15.8   36.1   5.93  .0702    117    1    100.0    5 
20/09/20   0:35   17.2   17.2   17.2    78   13.3  11.0   NNE   0.92  21.0   NNE   15.4   17.2   15.4  1014.1  0.00  0.00   0.004   0.000   35.6    31   15.8   36.1   5.93  .0702    117    1    100.0    5 
20/09/20   0:40   17.1   17.2   17.1    78   13.2  13.0     N   1.08  21.0     N   14.7   17.2   14.8  1014.1  0.00  0.00   0.004   0.000   35.6    31   15.8   36.1   5.93  .0702    116    1    100.0    5 
20/09/20   0:45   17.1   17.1   17.1    78   13.2  10.0     N   0.83  16.0     N   15.6   17.1   15.7  1014.1  0.00  0.00   0.004   0.000   35.5    31   15.8   36.1   5.93  .0702    116    1    100.0    5 
20/09/20   0:50   17.0   17.1   17.0    79   13.3  10.0     N   0.83  17.0     N   15.6   17.1   15.7  1014.1  0.00  0.00   0.005   0.000   35.6    31   15.8   36.1   5.93  .0702    117    1    100.0    5 
20/09/20   0:55   17.0   17.1   17.0    79   13.3  10.0     N   0.83  16.0   NNE   15.6   17.1   15.7  1014.1  0.00  0.00   0.005   0.000   35.5    31   15.8   36.1   5.93  .0702    117    1    100.0    5 
20/09/20   1:00   16.9   17.0   16.9    79   13.3  11.0     N   0.92  20.0   NNE   15.1   17.1   15.2  1014.0  0.00  0.00   0.005   0.000   35.5    31   15.8   36.1   5.93  .0702    116    1    100.0    5 
20/09/20   1:05   16.9   16.9   16.9    79   13.2  11.0     N   0.92  20.0   NNW   15.1   17.0   15.2  1014.0  0.00  0.00   0.005   0.000   35.5    31   15.8   36.1   5.93  .0702    117    1    100.0    5 
20/09/20   1:10   16.8   16.9   16.8    80   13.4  10.0     N   0.83  17.0   ENE   15.4   16.9   15.5  1014.1  0.00  0.00   0.005   0.000   35.5    31   15.8   36.1   5.93  .0702    117    1    100.0    5 
20/09/20   1:15   16.8   16.9   16.8    80   13.4  10.0   NNE   0.83  17.0    NE   15.4   16.9   15.5  1014.1  0.00  0.00   0.005   0.000   35.5    31   15.8   36.1   5.93  .0702    118    1    100.0    5 
20/09/20   1:20   16.8   16.8   16.8    80   13.3   9.0     N   0.75  17.0    NE   15.7   16.9   15.8  1014.1  0.00  0.00   0.005   0.000   35.5    31   15.8   36.1   5.93  .0702    116    1    100.0    5 
20/09/20   1:25   16.8   16.8   16.8    80   13.3  10.0     N   0.83  17.0    NE   15.3   16.9   15.4  1014.0  0.00  0.00   0.005   0.000   35.5    31   15.8   36.1   5.93  .0702    117    1    100.0    5 
20/09/20   1:30   16.8   16.8   16.7    80   13.3  11.0     N   0.92  18.0     N   14.9   16.9   15.0  1013.9  0.00  0.00   0.005   0.000   35.5    31   15.8   36.1   5.93  .0702    116    1    100.0    5 
20/09/20   1:35   16.7   16.7   16.7    80   13.2  10.0     N   0.83  15.0     N   15.2   16.8   15.3  1013.9  0.00  0.00   0.006   0.000   35.4    31   15.7   35.9   5.93  .0702    115    1    100.0    5 
20/09/20   1:40   16.7   16.7   16.7    80   13.2  10.0     N   0.83  15.0   NNE   15.2   16.8   15.3  1013.8  0.00  0.00   0.006   0.000   35.4    31   15.7   35.9   5.93  .0702    116    1    100.0    5 
20/09/20   1:45   16.7   16.7   16.7    81   13.4  11.0     N   0.92  16.0   NNE   14.8   16.8   14.9  1013.9  0.00  0.00   0.006   0.000   35.4    31   15.7   35.9   5.93  .0702    117    1    100.0    5 
20/09/20   1:50   16.7   16.7   16.7    81   13.4  10.0     N   0.83  18.0     N   15.2   16.8   15.3  1013.8  0.00  0.00   0.006   0.000   35.4    31   15.7   35.9   5.94  .0702    117    1    100.0    5 
20/09/20   1:55   16.7   16.7   16.7    81   13.4  12.0     N   1.00  20.0     N   14.4   16.8   14.6  1013.8  0.00  0.00   0.006   0.000   35.4    31   15.7   35.9   5.94  .0702    117    1    100.0    5 
20/09/20   2:00   16.7   16.7   16.7    81   13.4  11.0     N   0.92  18.0   NNW   14.8   16.8   14.9  1013.9  0.00  0.00   0.006   0.000   35.4    31   15.7   35.9   5.94  .0702    117    1    100.0    5 
20/09/20   2:05   16.7   16.7   16.7    81   13.4  10.0     N   0.83  20.0     N   15.2   16.8   15.3  1013.9  0.00  0.00   0.006   0.000   35.4    31   15.7   35.9   5.94  .0702    117    1    100.0    5 
20/09/20   2:10   16.7   16.7   16.7    81   13.4  12.0     N   1.00  17.0     N   14.5   16.8   14.6  1013.9  0.00  0.00   0.006   0.000   35.4    31   15.7   35.9   5.94  .0702    117    1    100.0    5 
20/09/20   2:15   16.7   16.7   16.7    81   13.4  11.0     N   0.92  19.0     N   14.8   16.8   14.9  1014.0  0.00  0.00   0.006   0.000   35.4    31   15.7   35.9   5.94  .0703    117    1    100.0    5 
20/09/20   2:20   16.7   16.7   16.7    82   13.6  11.0     N   0.92  19.0   NNE   14.8   16.8   14.9  1014.0  0.00  0.00   0.006   0.000   35.3    31   15.6   35.8   5.94  .0703    118    1    100.0    5 
20/09/20   2:25   16.7   16.7   16.7    82   13.6  11.0     N   0.92  18.0     N   14.8   16.8   14.9  1014.0  0.00  0.00   0.006   0.000   35.3    31   15.6   35.8   5.94  .0703    116    1    100.0    5 
20/09/20   2:30   16.7   16.7   16.6    82   13.6  13.0     N   1.08  20.0     N   14.2   16.8   14.3  1013.8  0.00  0.00   0.006   0.000   35.3    31   15.6   35.8   5.94  .0703    117    1    100.0    5 
20/09/20   2:35   16.7   16.7   16.6    82   13.6  14.0     N   1.17  22.0   NNW   14.0   16.8   14.1  1013.8  0.00  0.00   0.006   0.000   35.3    31   15.6   35.8   5.94  .0703    116    1    100.0    5 
20/09/20   2:40   16.7   16.7   16.6    82   13.6  12.0     N   1.00  20.0     N   14.4   16.8   14.6  1013.8  0.00  0.00   0.006   0.000   35.3    31   15.6   35.7   5.94  .0703    117    1    100.0    5 
20/09/20   2:45   16.6   16.7   16.6    82   13.5  11.0     N   0.92  20.0     N   14.7   16.7   14.8  1013.9  0.00  0.00   0.006   0.000   35.3    31   15.6   35.7   5.94  .0703    117    1    100.0    5 
20/09/20   2:50   16.7   16.7   16.7    82   13.6  11.0     N   0.92  21.0   NNE   14.8   16.8   14.9  1014.0  0.00  0.00   0.006   0.000   35.3    31   15.6   35.7   5.94  .0703    116    1    100.0    5 
20/09/20   2:55   16.7   16.7   16.7    82   13.6  11.0     N   0.92  24.0     N   14.8   16.8   14.9  1014.0  0.00  0.00   0.006   0.000   35.2    31   15.5   35.7   5.94  .0703    117    1    100.0    5 
20/09/20   3:00   16.7   16.7   16.7    82   13.6  11.0     N   0.92  24.0     N   14.8   16.8   14.9  1013.9  0.00  0.00   0.006   0.000   35.2    31   15.5   35.7   5.94  .0703    117    1    100.0    5 
20/09/20   3:05   16.7   16.7   16.6    82   13.6  13.0     N   1.08  21.0     N   14.2   16.8   14.3  1013.9  0.00  0.00   0.006   0.000   35.2    31   15.5   35.7   5.94  .0703    116    1    100.0    5 
20/09/20   3:10   16.6   16.7   16.6    82   13.5  11.0     N   0.92  17.0   NNE   14.7   16.7   14.8  1013.9  0.00  0.00   0.006   0.000   35.2    31   15.5   35.7   5.94  .0703    117    1    100.0    5 
20/09/20   3:15   16.6   16.7   16.6    83   13.7  12.0     N   1.00  22.0     N   14.4   16.7   14.5  1013.8  0.00  0.00   0.006   0.000   35.2    31   15.5   35.7   5.94  .0703    116    1    100.0    5 
20/09/20   3:20   16.6   16.6   16.6    83   13.7  14.0     N   1.17  24.0     N   13.9   16.7   14.1  1013.7  0.00  0.00   0.006   0.000   35.2    31   15.5   35.6   5.94  .0703    118    1    100.0    5 
20/09/20   3:25   16.6   16.6   16.6    83   13.7  13.0     N   1.08  20.0   NNE   14.1   16.7   14.2  1013.8  0.00  0.00   0.006   0.000   35.2    31   15.5   35.6   5.94  .0703    116    1    100.0    5 
20/09/20   3:30   16.5   16.6   16.5    83   13.6  13.0     N   1.08  21.0     N   14.0   16.6   14.1  1013.7  0.00  0.00   0.006   0.000   35.2    31   15.5   35.6   5.94  .0703    117    1    100.0    5 
20/09/20   3:35   16.4   16.6   16.4    83   13.5  13.0     N   1.08  22.0   NNE   13.9   16.6   14.1  1013.7  0.00  0.00   0.007   0.000   35.2    31   15.5   35.6   5.94  .0703    117    1    100.0    5 
20/09/20   3:40   16.4   16.5   16.4    83   13.5  13.0     N   1.08  23.0     N   13.9   16.5   14.0  1013.8  0.00  0.00   0.007   0.000   35.2    31   15.5   35.6   5.94  .0703    117    1    100.0    5 
20/09/20   3:45   16.4   16.4   16.3    83   13.5  13.0     N   1.08  20.0   NNE   13.9   16.5   14.0  1013.8  0.00  0.00   0.007   0.000   35.1    31   15.4   35.5   5.95  .0703    116    1    100.0    5 
20/09/20   3:50   16.3   16.4   16.3    83   13.4  14.0     N   1.17  23.0     N   13.6   16.4   13.7  1013.8  0.00  0.00   0.007   0.000   35.1    31   15.4   35.5   5.95  .0703    116    1    100.0    5 
20/09/20   3:55   16.3   16.3   16.3    84   13.6  13.0     N   1.08  21.0     N   13.8   16.4   13.9  1013.8  0.00  0.00   0.007   0.000   35.2    31   15.5   35.6   5.94  .0703    117    1    100.0    5 
20/09/20   4:00   16.2   16.3   16.2    84   13.5  12.0     N   1.00  22.0     N   13.9   16.3   14.1  1014.0  0.00  0.00   0.007   0.000   35.2    31   15.5   35.6   5.94  .0703    117    1    100.0    5 
20/09/20   4:05   16.2   16.3   16.2    84   13.5  12.0     N   1.00  20.0     N   13.9   16.3   14.1  1014.0  0.00  0.00   0.007   0.000   35.2    31   15.5   35.6   5.94  .0703    117    1    100.0    5 
20/09/20   4:10   16.2   16.2   16.2    84   13.5  13.0     N   1.08  20.0     N   13.6   16.3   13.7  1013.9  0.00  0.00   0.008   0.000   35.2    31   15.5   35.6   5.94  .0703    117    1    100.0    5 
20/09/20   4:15   16.2   16.2   16.1    84   13.5  10.0     N   0.83  15.0     N   14.6   16.3   14.7  1013.9  0.00  0.00   0.008   0.000   35.1    31   15.4   35.5   5.95  .0703    117    1    100.0    5 
20/09/20   4:20   16.1   16.2   16.1    84   13.4  11.0     N   0.92  17.0     N   14.2   16.2   14.3  1014.0  0.00  0.00   0.008   0.000   35.2    31   15.5   35.6   5.94  .0703    117    1    100.0    5 
20/09/20   4:25   16.1   16.1   16.1    84   13.4  11.0     N   0.92  19.0   NNE   14.2   16.2   14.3  1013.9  0.00  0.00   0.008   0.000   35.1    31   15.4   35.5   5.95  .0703    118    1    100.0    5 
20/09/20   4:30   16.1   16.1   16.1    84   13.4  12.0     N   1.00  21.0     N   13.8   16.2   13.9  1013.9  0.00  0.00   0.008   0.000   35.1    31   15.4   35.5   5.95  .0703    117    1    100.0    5 
20/09/20   4:35   16.1   16.1   16.1    85   13.5  12.0     N   1.00  21.0     N   13.8   16.2   13.9  1013.9  0.00  0.00   0.008   0.000   35.1    31   15.4   35.4   5.95  .0703    116    1    100.0    5 
20/09/20   4:40   16.1   16.1   16.1    85   13.5  11.0     N   0.92  20.0   NNE   14.1   16.2   14.2  1014.0  0.00  0.00   0.008   0.000   35.1    31   15.4   35.4   5.95  .0704    117    1    100.0    5 
20/09/20   4:45   16.0   16.1   16.0    85   13.5  12.0     N   1.00  18.0   NNW   13.7   16.1   13.8  1013.9  0.00  0.00   0.008   0.000   35.1    31   15.4   35.4   5.95  .0703    116    1    100.0    5 
20/09/20   4:50   16.0   16.1   15.9    85   13.5  12.0     N   1.00  20.0     N   13.7   16.1   13.8  1013.9  0.00  0.00   0.008   0.000   35.1    31   15.4   35.4   5.95  .0703    117    1    100.0    5 
20/09/20   4:55   16.0   16.0   15.9    85   13.5  11.0     N   0.92  18.0     N   14.1   16.1   14.2  1014.0  0.00  0.00   0.008   0.000   35.0    31   15.3   35.3   5.95  .0704    116    1    100.0    5 
20/09/20   5:00   16.0   16.0   15.9    85   13.5  13.0     N   1.08  20.0     N   13.4   16.1   13.6  1013.9  0.00  0.00   0.008   0.000   35.0    31   15.3   35.3   5.95  .0704    116    1    100.0    5 
20/09/20   5:05   16.0   16.0   15.9    85   13.5  14.0     N   1.17  22.0     N   13.2   16.1   13.3  1013.8  0.00  0.00   0.008   0.000   35.0    31   15.3   35.3   5.95  .0704    117    1    100.0    5 
20/09/20   5:10   15.9   16.0   15.9    85   13.4  14.0     N   1.17  22.0     N   13.2   16.1   13.3  1013.8  0.00  0.00   0.008   0.000   34.9    31   15.3   35.3   5.95  .0704    117    1    100.0    5 
20/09/20   5:15   15.9   16.0   15.9    85   13.4  15.0     N   1.25  23.0     N   12.9   16.1   13.1  1013.8  0.00  0.00   0.008   0.000   34.9    31   15.3   35.3   5.95  .0704    116    1    100.0    5 
20/09/20   5:20   15.9   15.9   15.9    85   13.4  14.0     N   1.17  19.0     N   13.1   16.0   13.2  1013.8  0.00  0.00   0.008   0.000   34.9    31   15.3   35.3   5.95  .0704    117    1    100.0    5 
20/09/20   5:25   15.9   15.9   15.9    85   13.4  14.0     N   1.17  23.0   NNW   13.1   16.0   13.2  1013.7  0.00  0.00   0.008   0.000   34.9    31   15.3   35.3   5.95  .0704     67    1     58.8    5 
20/09/20   5:30   15.9   15.9   15.9    85   13.4  15.0     N   1.25  24.0     N   12.9   16.0   13.0  1013.7  0.00  0.00   0.008   0.000   34.9    31   15.3   35.3   5.95  .0704    117    1    100.0    5 
20/09/20   5:35   15.9   15.9   15.9    85   13.4  15.0     N   1.25  21.0     N   12.9   16.0   13.0  1013.7  0.00  0.00   0.008   0.000   34.9    31   15.3   35.3   5.95  .0704    115    1    100.0    5 
20/09/20   5:40   15.8   15.9   15.8    85   13.3  13.0     N   1.08  21.0   NNW   13.3   15.9   13.4  1013.8  0.00  0.00   0.009   0.000   34.9    31   15.3   35.2   5.96  .0704    116    1    100.0    5 
20/09/20   5:45   15.8   15.9   15.8    85   13.3  13.0     N   1.08  21.0   NNW   13.3   15.9   13.4  1013.8  0.00  0.00   0.009   0.000   34.9    31   15.3   35.2   5.96  .0704    117    1    100.0    5 
20/09/20   5:50   15.8   15.8   15.8    85   13.3  15.0     N   1.25  21.0     N   12.8   15.8   12.8  1013.8  0.00  0.00   0.009   0.000   34.9    31   15.3   35.2   5.96  .0704    117    1    100.0    5 
20/09/20   5:55   15.7   15.8   15.7    85   13.2  14.0     N   1.17  23.0     N   12.9   15.8   12.9  1013.8  0.00  0.00   0.009   0.000   34.9    31   15.3   35.2   5.96  .0704    116    1    100.0    5 
20/09/20   6:00   15.7   15.8   15.7    86   13.4  13.0     N   1.08  20.0   NNE   13.1   15.8   13.2  1013.9  0.00  0.00   0.009   0.000   34.8    31   15.2   35.1   5.96  .0704    117    1    100.0    5 
20/09/20   6:05   15.7   15.7   15.7    86   13.4  14.0     N   1.17  22.0   NNW   12.9   15.8   13.0  1013.9  0.00  0.00   0.009   0.000   34.9    31   15.3   35.2   5.96  .0704    116    1    100.0    5 
20/09/20   6:10   15.7   15.7   15.7    86   13.4  13.0     N   1.08  20.0     N   13.1   15.8   13.2  1014.0  0.00  0.00   0.009   0.000   34.8    31   15.2   35.1   5.96  .0704    117    1    100.0    5 
20/09/20   6:15   15.7   15.7   15.7    86   13.3  13.0     N   1.08  21.0     N   13.1   15.8   13.2  1014.0  0.00  0.00   0.009   0.000   34.8    31   15.2   35.1   5.97  .0704    117    1    100.0    5 
20/09/20   6:20   15.7   15.7   15.7    86   13.4  12.0     N   1.00  19.0     N   13.4   15.8   13.5  1014.1  0.00  0.00   0.009   0.000   34.8    31   15.2   35.1   5.97  .0704    116    1    100.0    5 
20/09/20   6:25   15.7   15.7   15.7    86   13.3  14.0     N   1.17  20.0     N   12.8   15.8   12.9  1014.1  0.00  0.00   0.009   0.000   34.8    31   15.2   35.1   5.97  .0704    117    1    100.0    5 
20/09/20   6:30   15.7   15.7   15.6    86   13.3  12.0     N   1.00  19.0     N   13.3   15.8   13.4  1014.0  0.00  0.00   0.009   0.000   34.8    31   15.2   35.1   5.97  .0704    118    1    100.0    5 
20/09/20   6:35   15.7   15.7   15.6    86   13.3  12.0     N   1.00  18.0     N   13.3   15.8   13.4  1014.0  0.00  0.00   0.009   0.000   34.7    31   15.1   35.0   5.97  .0705    116    1    100.0    5 
20/09/20   6:40   15.6   15.7   15.6    86   13.3  12.0     N   1.00  17.0     N   13.3   15.7   13.3  1014.2  0.00  0.00   0.009   0.000   34.7    31   15.1   35.0   5.97  .0705    116    1    100.0    5 
20/09/20   6:45   15.6   15.7   15.6    86   13.3  12.0     N   1.00  19.0     N   13.3   15.7   13.3  1014.2  0.00  0.00   0.009   0.000   34.7    31   15.1   35.0   5.97  .0705    116    1    100.0    5 
20/09/20   6:50   15.6   15.7   15.6    86   13.3  14.0     N   1.17  23.0     N   12.8   15.7   12.8  1014.3  0.00  0.00   0.009   0.000   34.7    31   15.1   35.0   5.97  .0705    115    1    100.0    5 
20/09/20   6:55   15.6   15.6   15.6    86   13.3  14.0     N   1.17  21.0     N   12.8   15.7   12.8  1014.3  0.00  0.00   0.009   0.000   34.7    31   15.1   34.9   5.97  .0705    117    1    100.0    5 
20/09/20   7:00   15.6   15.6   15.6    86   13.2  12.0     N   1.00  19.0   NNE   13.2   15.6   13.3  1014.3  0.00  0.00   0.010   0.000   34.7    31   15.1   34.9   5.97  .0705    116    1    100.0    5 
20/09/20   7:05   15.6   15.6   15.6    86   13.2  13.0     N   1.08  23.0     N   12.9   15.6   13.0  1014.3  0.00  0.00   0.010   0.000   34.7    31   15.1   34.9   5.97  .0705    116    1    100.0    5 
20/09/20   7:10   15.6   15.6   15.5    86   13.2  13.0     N   1.08  20.0   NNE   12.9   15.6   13.0  1014.4  0.00  0.00   0.010   0.000   34.7    31   15.1   34.9   5.97  .0705    117    1    100.0    5 
20/09/20   7:15   15.5   15.6   15.5    86   13.2  13.0     N   1.08  19.0   NNE   12.9   15.6   12.9  1014.4  0.00  0.00   0.010   0.000   34.6    31   15.0   34.8   5.98  .0705    117    1    100.0    5 
20/09/20   7:20   15.5   15.6   15.4    86   13.2  13.0     N   1.08  19.0   NNW   12.9   15.6   12.9  1014.4  0.00  0.00   0.010   0.000   34.6    31   15.0   34.8   5.98  .0705    116    1    100.0    5 
20/09/20   7:25   15.5   15.5   15.4    86   13.2  13.0     N   1.08  20.0     N   12.9   15.6   12.9  1014.3  0.00  0.00   0.010   0.000   34.6    31   15.0   34.8   5.98  .0705    116    1    100.0    5 
20/09/20   7:30   15.6   15.6   15.5    86   13.2  12.0     N   1.00  19.0     N   13.2   15.6   13.3  1014.4  0.00  0.00   0.010   0.000   34.6    31   15.0   34.8   5.98  .0705    116    1    100.0    5 
20/09/20   7:35   15.6   15.6   15.6    86   13.3  12.0     N   1.00  20.0     N   13.3   15.7   13.3  1014.4  0.00  0.00   0.009   0.000   34.6    31   15.0   34.8   5.98  .0705    117    1    100.0    5 
20/09/20   7:40   15.7   15.7   15.6    86   13.3  12.0     N   1.00  18.0     N   13.3   15.8   13.4  1014.4  0.00  0.00   0.009   0.000   34.6    31   15.0   34.8   5.98  .0705    116    1    100.0    5 
20/09/20   7:45   15.7   15.7   15.6    86   13.3  12.0     N   1.00  18.0     N   13.3   15.8   13.4  1014.4  0.00  0.00   0.009   0.000   34.6    31   15.0   34.8   5.98  .0705    117    1    100.0    5 
20/09/20   7:50   15.7   15.8   15.7    86   13.4  12.0     N   1.00  18.0     N   13.4   15.8   13.5  1014.4  0.00  0.00   0.009   0.000   34.6    31   15.0   34.8   5.98  .0705    117    1    100.0    5 
20/09/20   7:55   15.8   15.8   15.7    86   13.5  12.0     N   1.00  21.0     N   13.6   15.9   13.7  1014.5  0.00  0.00   0.009   0.000   34.6    31   15.0   34.8   5.98  .0705    117    1    100.0    5 
20/09/20   8:00   15.9   15.9   15.8    86   13.5  11.0     N   0.92  17.0     N   13.9   16.0   14.0  1014.5  0.00  0.00   0.008   0.000   34.5    31   14.9   34.7   5.99  .0706    117    1    100.0    5 
20/09/20   8:05   15.9   15.9   15.9    86   13.6  10.0     N   0.83  17.0   NNE   14.3   16.1   14.4  1014.6  0.00  0.00   0.008   0.000   34.5    31   14.9   34.7   5.99  .0706    117    1    100.0    5 
20/09/20   8:10   16.0   16.0   15.9    85   13.5   9.0     N   0.75  16.0     N   14.8   16.1   14.9  1014.7  0.00  0.00   0.008   0.000   34.5    31   14.9   34.7   5.99  .0706    117    1    100.0    5 
20/09/20   8:15   16.1   16.1   16.0    85   13.6  10.0     N   0.83  14.0     N   14.5   16.2   14.6  1014.8  0.00  0.00   0.008   0.000   34.5    31   14.9   34.7   5.99  .0706    117    1    100.0    5 
20/09/20   8:20   16.3   16.3   16.2    85   13.8  11.0     N   0.92  18.0   NNW   14.3   16.4   14.4  1014.8  0.00  0.00   0.007   0.000   34.5    31   14.9   34.7   5.99  .0706    117    1    100.0    5 
20/09/20   8:25   16.4   16.4   16.3    85   13.9  10.0     N   0.83  16.0   NNE   14.9   16.6   15.1  1014.8  0.00  0.00   0.007   0.000   34.5    31   14.9   34.7   5.99  .0706    117    1    100.0    5 
20/09/20   8:30   16.6   16.6   16.4    84   13.8  10.0     N   0.83  17.0     N   15.1   16.7   15.2  1014.9  0.00  0.00   0.006   0.000   34.6    31   15.0   34.8   5.98  .0706    117    1    100.0    5 
20/09/20   8:35   16.6   16.6   16.6    83   13.7  11.0     N   0.92  22.0     N   14.7   16.7   14.8  1014.9  0.00  0.00   0.006   0.000   34.5    31   14.9   34.7   5.99  .0706    117    1    100.0    5 
20/09/20   8:40   16.7   16.7   16.6    83   13.8  12.0     N   1.00  19.0   NNE   14.4   16.8   14.6  1014.9  0.00  0.00   0.006   0.000   34.5    31   14.9   34.7   5.99  .0706    116    1    100.0    5 
20/09/20   8:45   16.7   16.8   16.7    83   13.8  14.0     N   1.17  21.0     N   14.1   16.9   14.2  1014.9  0.00  0.00   0.006   0.000   34.5    31   14.9   34.7   5.99  .0706    116    1    100.0    5 
20/09/20   8:50   16.8   16.8   16.7    83   13.9  14.0     N   1.17  24.0     N   14.1   16.9   14.3  1014.9  0.00  0.00   0.005   0.000   34.5    31   14.9   34.7   5.99  .0706    116    1    100.0    5 
20/09/20   8:55   16.9   16.9   16.8    82   13.8  13.0     N   1.08  23.0     N   14.4   17.1   14.6  1014.9  0.00  0.00   0.005   0.000   34.5    31   14.9   34.7   5.99  .0706    117    1    100.0    5 
20/09/20   9:00   17.0   17.1   16.9    82   13.9  13.0     N   1.08  20.0     N   14.6   17.2   14.8  1014.8  0.00  0.00   0.005   0.000   34.5    31   14.9   34.7   5.99  .0706    117    1    100.0    5 
20/09/20   9:05   17.1   17.1   17.1    82   14.0  14.0     N   1.17  25.0   NNE   14.4   17.2   14.6  1014.9  0.00  0.00   0.004   0.000   34.6    31   15.0   34.8   5.98  .0706    115    1    100.0    5 
20/09/20   9:10   17.2   17.2   17.1    82   14.1  13.0     N   1.08  20.0   NNW   14.8   17.4   15.0  1014.9  0.00  0.00   0.004   0.000   34.5    31   14.9   34.7   5.99  .0706    117    1    100.0    5 
20/09/20   9:15   17.3   17.3   17.2    81   14.0   9.0     N   0.75  20.0    NE   16.3   17.6   16.6  1015.0  0.00  0.00   0.003   0.000   34.5    31   14.9   34.7   5.99  .0706    115    1    100.0    5 
20/09/20   9:20   17.4   17.4   17.3    81   14.1  10.0     N   0.83  19.0    NE   16.1   17.7   16.3  1014.9  0.00  0.00   0.003   0.000   34.5    31   14.9   34.7   5.99  .0706    117    1    100.0    5 
20/09/20   9:25   17.4   17.4   17.4    81   14.1  12.0     N   1.00  18.0   NNE   15.3   17.7   15.6  1014.9  0.00  0.00   0.003   0.000   34.6    31   15.0   34.8   5.98  .0706    117    1    100.0    5 
20/09/20   9:30   17.5   17.5   17.4    80   14.0  10.0     N   0.83  17.0     N   16.2   17.7   16.4  1015.0  0.00  0.00   0.003   0.000   34.6    31   15.0   34.8   5.98  .0706    114    1    100.0    5 
20/09/20   9:35   17.5   17.6   17.4    80   14.0  12.0     N   1.00  23.0     N   15.4   17.7   15.7  1015.0  0.00  0.00   0.003   0.000   34.5    31   14.9   34.7   5.99  .0706    117    1    100.0    5 
20/09/20   9:40   17.7   17.7   17.5    80   14.2  11.0     N   0.92  18.0     N   15.9   17.9   16.2  1015.0  0.00  0.00   0.002   0.000   34.5    31   14.9   34.7   5.99  .0706    118    1    100.0    5 
20/09/20   9:45   17.8   17.8   17.6    80   14.3  11.0     N   0.92  19.0     N   16.1   18.1   16.3  1015.1  0.00  0.00   0.002   0.000   34.6    31   15.0   34.8   5.98  .0706    117    1    100.0    5 
20/09/20   9:50   17.9   17.9   17.8    79   14.2  11.0     N   0.92  20.0     N   16.2   18.2   16.4  1015.2  0.00  0.00   0.002   0.000   34.6    31   15.0   34.8   5.98  .0706    116    1    100.0    5 
20/09/20   9:55   17.9   17.9   17.9    79   14.2  11.0     N   0.92  18.0   NNW   16.3   18.2   16.6  1015.3  0.00  0.00   0.001   0.000   34.5    31   14.9   34.7   5.99  .0706    117    1    100.0    5 
20/09/20  10:00   18.1   18.1   17.9    78   14.2   9.0     N   0.75  19.0    NE   17.2   18.3   17.4  1015.3  0.00  0.00   0.001   0.000   34.5    31   14.9   34.7   5.99  .0706    117    1    100.0    5 
20/09/20  10:05   18.2   18.2   18.1    78   14.3   9.0     N   0.75  17.0     N   17.4   18.5   17.7  1015.4  0.00  0.00   0.000   0.000   34.6    31   15.0   34.8   5.98  .0706    117    1    100.0    5 
20/09/20  10:10   18.5   18.5   18.2    78   14.6  10.0     N   0.83  17.0     N   17.3   18.8   17.7  1015.4  0.00  0.00   0.000   0.001   34.6    31   15.0   34.8   5.98  .0706    116    1    100.0    5 
20/09/20  10:15   18.8   18.8   18.5    76   14.5  10.0     N   0.83  16.0     N   17.7   19.1   17.9  1015.6  0.00  0.00   0.000   0.002   34.7    31   15.1   34.9   5.97  .0706    117    1    100.0    5 
20/09/20  10:20   19.1   19.1   18.8    75   14.5  11.0     N   0.92  20.0   NNE   17.6   19.4   17.9  1015.6  0.00  0.00   0.000   0.003   34.7    31   15.1   35.0   5.97  .0706    115    1    100.0    5 
20/09/20  10:25   19.3   19.3   19.1    74   14.5   9.0     N   0.75  17.0   NNE   18.6   19.6   18.9  1015.7  0.00  0.00   0.000   0.003   34.7    31   15.1   34.9   5.97  .0706    117    1    100.0    5 
20/09/20  10:30   19.6   19.6   19.3    73   14.6  10.0     N   0.83  19.0     N   18.4   19.9   18.8  1015.7  0.00  0.00   0.000   0.004   34.7    31   15.1   35.0   5.97  .0706    117    1    100.0    5 
20/09/20  10:35   19.8   19.9   19.6    72   14.6  10.0     N   0.83  21.0     N   18.7   20.2   19.1  1015.9  0.00  0.00   0.000   0.005   34.7    31   15.1   35.0   5.97  .0706    116    1    100.0    5 
20/09/20  10:40   20.1   20.1   19.8    71   14.7   9.0     N   0.75  17.0    NE   19.3   20.4   19.7  1015.8  0.00  0.00   0.000   0.006   34.7    32   15.6   35.2   6.16  .0705    117    1    100.0    5 
20/09/20  10:45   20.3   20.3   20.1    70   14.7   8.0     N   0.67  15.0   NNW   19.9   20.6   20.2  1015.9  0.00  0.00   0.000   0.007   34.7    32   15.6   35.2   6.16  .0705    118    1    100.0    5 
20/09/20  10:50   20.2   20.3   20.2    70   14.6  10.0     N   0.83  14.0   NNE   19.1   20.5   19.3  1015.7  0.00  0.00   0.000   0.007   34.7    32   15.6   35.2   6.16  .0705    117    1    100.0    5 
20/09/20  10:55   20.2   20.3   20.2    70   14.5   9.0     N   0.75  15.0     N   19.4   20.4   19.7  1015.8  0.00  0.00   0.000   0.006   34.7    32   15.6   35.2   6.16  .0705    117    1    100.0    5 
20/09/20  11:00   20.2   20.2   20.1    70   14.5   9.0     N   0.75  14.0     N   19.4   20.4   19.7  1015.8  0.00  0.00   0.000   0.006   34.7    31   15.1   35.0   5.97  .0706    116    1    100.0    5 
20/09/20  11:05   20.3   20.3   20.2    69   14.5  10.0     N   0.83  18.0   NNW   19.2   20.6   19.4  1015.8  0.00  0.00   0.000   0.007   34.8    31   15.2   35.1   5.97  .0706    117    1    100.0    5 
20/09/20  11:10   20.4   20.4   20.3    69   14.5  10.0     N   0.83  17.0   NNE   19.2   20.6   19.4  1015.8  0.00  0.00   0.000   0.007   34.8    31   15.2   35.1   5.97  .0706    117    1    100.0    5 
20/09/20  11:15   20.3   20.4   20.3    68   14.2  11.0     N   0.92  17.0     N   18.9   20.5   19.1  1015.7  0.00  0.00   0.000   0.007   34.8    31   15.2   35.1   5.97  .0706    116    1    100.0    5 
20/09/20  11:20   20.6   20.6   20.4    68   14.4   8.0     N   0.67  17.0   NNE   20.2   20.7   20.3  1015.9  0.00  0.00   0.000   0.008   34.8    31   15.2   35.1   5.97  .0706    116    1    100.0    5 
20/09/20  11:25   20.8   20.8   20.6    67   14.4   9.0   NNE   0.75  17.0   NNE   20.0   20.8   20.0  1015.8  0.00  0.00   0.000   0.008   34.8    31   15.2   35.1   5.97  .0706    117    1    100.0    5 
20/09/20  11:30   21.1   21.1   20.8    67   14.7   8.0   NNE   0.67  15.0   NNE   20.8   21.1   20.8  1015.7  0.00  0.00   0.000   0.010   34.8    31   15.2   35.1   5.97  .0706    117    1    100.0    5 
20/09/20  11:35   21.4   21.4   21.1    66   14.8   7.0   NNE   0.58  15.0   NNE   21.4   21.3   21.3  1015.7  0.00  0.00   0.000   0.011   34.8    31   15.2   35.1   5.97  .0706    117    1    100.0    5 
20/09/20  11:40   21.8   21.8   21.4    64   14.7   7.0    NE   0.58  13.0   ENE   21.8   21.8   21.8  1015.6  0.00  0.00   0.000   0.012   34.8    31   15.2   35.1   5.97  .0706    117    1    100.0    5 
20/09/20  11:45   22.0   22.0   21.8    63   14.6   8.0   NNE   0.67  16.0     N   21.7   22.0   21.7  1015.8  0.00  0.00   0.000   0.013   34.8    31   15.2   35.1   5.96  .0705    118    1    100.0    5 
20/09/20  11:50   22.2   22.2   22.0    62   14.6   7.0   NNE   0.58  14.0   NNE   22.2   22.3   22.3  1015.9  0.00  0.00   0.000   0.014   34.8    31   15.2   35.1   5.96  .0706    117    1    100.0    5 
20/09/20  11:55   22.3   22.3   22.2    62   14.6   9.0     N   0.75  16.0     N   21.5   22.3   21.6  1015.8  0.00  0.00   0.000   0.014   34.8    31   15.2   35.1   5.96  .0705    117    1    100.0    5 
20/09/20  12:00   21.9   22.2   21.9    62   14.3   9.0     N   0.75  18.0   NNE   21.2   21.9   21.1  1015.7  0.00  0.00   0.000   0.013   34.8    31   15.2   35.1   5.96  .0705    117    1    100.0    5 
20/09/20  12:05   21.7   21.9   21.7    62   14.1   8.0     N   0.67  17.0     N   21.4   21.6   21.3  1015.7  0.00  0.00   0.000   0.012   34.9    31   15.3   35.2   5.96  .0705    117    1    100.0    5 
20/09/20  12:10   21.8   21.8   21.7    63   14.4   7.0   NNE   0.58  11.0    NE   21.8   21.7   21.7  1015.7  0.00  0.00   0.000   0.012   34.9    31   15.3   35.2   5.96  .0705    117    1    100.0    5 
20/09/20  12:15   21.8   21.8   21.7    63   14.5   7.0     N   0.58  12.0   NNE   21.8   21.8   21.8  1015.7  0.00  0.00   0.000   0.012   34.9    31   15.3   35.2   5.96  .0705    115    1    100.0    5 
20/09/20  12:20   21.9   21.9   21.8    61   14.1   7.0   NNE   0.58  15.0   NNE   21.9   21.8   21.8  1015.7  0.00  0.00   0.000   0.013   34.9    31   15.3   35.2   5.96  .0705    116    1    100.0    5 
20/09/20  12:25   22.1   22.1   21.9    61   14.2   6.0     N   0.50  12.0   NNE   22.1   22.0   22.0  1015.9  0.00  0.00   0.000   0.013   34.9    32   15.7   35.4   6.15  .0705    117    1    100.0    5 
20/09/20  12:30   22.1   22.1   22.1    61   14.2   6.0   NNE   0.50  16.0   NNE   22.1   22.1   22.1  1015.9  0.00  0.00   0.000   0.013   34.9    32   15.7   35.4   6.15  .0705    116    1    100.0    5 
20/09/20  12:35   22.2   22.2   22.1    60   14.1   6.0   NNE   0.50  13.0     N   22.2   22.2   22.2  1015.9  0.00  0.00   0.000   0.014   34.9    32   15.7   35.4   6.15  .0705    116    1    100.0    5 
20/09/20  12:40   22.3   22.3   22.2    60   14.2   6.0    NE   0.50  16.0    NE   22.3   22.3   22.3  1016.0  0.00  0.00   0.000   0.014   34.9    32   15.7   35.4   6.15  .0705    117    1    100.0    5 
20/09/20  12:45   22.3   22.3   22.3    60   14.1   7.0   NNE   0.58  15.0     E   22.3   22.3   22.3  1016.0  0.00  0.00   0.000   0.014   34.9    32   15.7   35.4   6.15  .0705    117    1    100.0    5 
20/09/20  12:50   22.3   22.3   22.3    61   14.4   6.0   NNE   0.50  10.0    NE   22.3   22.4   22.4  1015.9  0.00  0.00   0.000   0.014   34.9    32   15.8   35.4   6.15  .0705    118    1    100.0    5 
20/09/20  12:55   22.4   22.4   22.3    61   14.5   5.0    NE   0.42  13.0     N   22.4   22.6   22.6  1015.9  0.00  0.00   0.000   0.014   34.9    32   15.8   35.4   6.15  .0705    117    1    100.0    5 
20/09/20  13:00   22.6   22.6   22.4    60   14.5   6.0   NNE   0.50  11.0   ENE   22.6   22.7   22.7  1015.9  0.00  0.00   0.000   0.015   34.9    32   15.8   35.4   6.15  .0705    116    1    100.0    5 
20/09/20  13:05   22.9   22.9   22.6    59   14.5   5.0   NNE   0.42   9.0    NE   22.9   23.1   23.1  1015.9  0.00  0.00   0.000   0.016   34.9    32   15.8   35.4   6.15  .0705    117    1    100.0    5 
20/09/20  13:10   23.2   23.2   22.9    57   14.2   5.0    NE   0.42  10.0   ENE   23.2   23.3   23.3  1015.9  0.00  0.00   0.000   0.017   34.9    32   15.8   35.4   6.15  .0705    117    1    100.0    5 
20/09/20  13:15   23.3   23.3   23.1    56   14.1   5.0    NE   0.42   9.0   NNE   23.3   23.5   23.5  1015.9  0.00  0.00   0.000   0.017   34.9    32   15.8   35.4   6.15  .0705    117    1    100.0    5 
20/09/20  13:20   23.3   23.4   23.3    56   14.1   6.0   NNE   0.50  10.0   ENE   23.3   23.5   23.5  1015.9  0.00  0.00   0.000   0.017   34.9    32   15.8   35.4   6.15  .0705    117    1    100.0    5 
20/09/20  13:25   23.4   23.4   23.3    56   14.1   5.0   NNE   0.42   9.0     N   23.4   23.6   23.6  1015.8  0.00  0.00   0.000   0.018   35.0    32   15.8   35.6   6.15  .0705    117    1    100.0    5 
20/09/20  13:30   23.4   23.4   23.3    56   14.2   6.0   NNE   0.50  12.0    NE   23.4   23.7   23.7  1015.9  0.00  0.00   0.000   0.018   35.0    32   15.8   35.6   6.15  .0705    117    1    100.0    5 
20/09/20  13:35   23.4   23.4   23.4    55   13.8   8.0   NNE   0.67  16.0   ENE   23.1   23.5   23.2  1015.8  0.00  0.00   0.000   0.018   34.9    32   15.8   35.4   6.15  .0705    117    1    100.0    5 
20/09/20  13:40   23.4   23.4   23.4    55   13.8   7.0   NNE   0.58  12.0   NNE   23.4   23.5   23.5  1015.8  0.00  0.00   0.000   0.018   35.0    32   15.8   35.6   6.15  .0705    117    1    100.0    5 
20/09/20  13:45   23.5   23.5   23.4    55   13.9   5.0     N   0.42   9.0     N   23.5   23.7   23.7  1015.9  0.00  0.00   0.000   0.018   35.0    32   15.8   35.6   6.15  .0705    117    1    100.0    5 
20/09/20  13:50   23.7   23.7   23.4    55   14.1   3.0    NE   0.25   8.0   ENE   23.7   23.9   23.9  1015.9  0.00  0.00   0.000   0.019   35.0    32   15.8   35.6   6.15  .0705    118    1    100.0    5 
20/09/20  13:55   23.8   23.8   23.7    53   13.6   7.0    NE   0.58  18.0   ENE   23.8   23.9   23.9  1015.9  0.00  0.00   0.000   0.019   35.0    32   15.8   35.6   6.15  .0705    117    1    100.0    5 
20/09/20  14:00   23.8   23.8   23.8    53   13.7   7.0    NE   0.58  14.0    NE   23.8   24.0   24.0  1015.9  0.00  0.00   0.000   0.019   34.9    32   15.8   35.4   6.15  .0705    116    1    100.0    5 
20/09/20  14:05   23.9   23.9   23.8    53   13.7   7.0    NE   0.58  15.0     E   23.9   24.1   24.1  1015.9  0.00  0.00   0.000   0.019   34.9    32   15.8   35.4   6.15  .0705    117    1    100.0    5 
20/09/20  14:10   23.9   23.9   23.8    53   13.8   6.0   NNE   0.50  13.0   ENE   23.9   24.1   24.1  1015.9  0.00  0.00   0.000   0.019   34.9    32   15.8   35.4   6.15  .0705    117    1    100.0    5 
20/09/20  14:15   23.9   23.9   23.8    53   13.7   8.0    NE   0.67  13.0     N   23.6   24.1   23.8  1015.8  0.00  0.00   0.000   0.019   34.9    32   15.8   35.4   6.15  .0705    115    1    100.0    5 
20/09/20  14:20   23.9   23.9   23.8    53   13.8   5.0   NNE   0.42  11.0   NNE   23.9   24.1   24.1  1015.8  0.00  0.00   0.000   0.019   35.0    32   15.8   35.6   6.15  .0705    117    1    100.0    5 
20/09/20  14:25   24.2   24.2   24.0    53   14.0   6.0     N   0.50  11.0   NNE   24.2   24.3   24.3  1015.8  0.00  0.00   0.000   0.020   35.0    32   15.8   35.6   6.15  .0705    115    1    100.0    5 
20/09/20  14:30   24.4   24.4   24.2    53   14.2   8.0     N   0.67  16.0    NE   24.1   24.5   24.2  1015.6  0.00  0.00   0.000   0.021   35.0    32   15.8   35.6   6.15  .0704    117    1    100.0    5 
20/09/20  14:35   24.7   24.7   24.4    52   14.2   6.0    NE   0.50  14.0    NE   24.7   24.8   24.8  1015.4  0.00  0.00   0.000   0.022   35.0    32   15.8   35.6   6.15  .0704    117    1    100.0    5 
20/09/20  14:40   25.0   25.0   24.7    50   13.9   8.0   NNE   0.67  13.0    NE   24.7   24.9   24.6  1015.4  0.00  0.00   0.000   0.023   35.0    32   15.8   35.6   6.15  .0704    116    1    100.0    5 
20/09/20  14:45   25.2   25.2   25.0    49   13.7   6.0    NE   0.50  14.0   ENE   25.2   25.1   25.1  1015.4  0.00  0.00   0.000   0.024   35.0    32   15.8   35.6   6.15  .0704    117    1    100.0    5 
20/09/20  14:50   25.2   25.3   25.2    49   13.7   6.0    NE   0.50  16.0    NE   25.2   25.1   25.1  1015.3  0.00  0.00   0.000   0.024   35.0    32   15.8   35.6   6.15  .0704    117    1    100.0    5 
20/09/20  14:55   25.2   25.2   25.2    49   13.7   7.0   NNE   0.58  13.0   NNE   25.2   25.1   25.1  1015.3  0.00  0.00   0.000   0.024   35.1    32   15.9   35.6   6.15  .0704    118    1    100.0    5 
20/09/20  15:00   25.1   25.2   25.1    49   13.6   8.0     N   0.67  14.0   NNW   24.8   24.9   24.7  1015.2  0.00  0.00   0.000   0.023   35.1    32   15.9   35.6   6.15  .0704    117    1    100.0    5 
20/09/20  15:05   25.0   25.1   25.0    49   13.5   8.0   NNE   0.67  17.0    NE   24.7   24.8   24.6  1015.3  0.00  0.00   0.000   0.023   35.1    32   15.9   35.6   6.15  .0704    117    1    100.0    5 
20/09/20  15:10   25.2   25.2   25.0    49   13.7   6.0     N   0.50  13.0   ENE   25.2   25.1   25.1  1015.4  0.00  0.00   0.000   0.024   35.1    32   15.9   35.6   6.15  .0704    117    1    100.0    5 
20/09/20  15:15   25.4   25.4   25.2    48   13.6   5.0   NNE   0.42  10.0    NE   25.4   25.3   25.3  1015.4  0.00  0.00   0.000   0.024   35.1    32   15.9   35.7   6.15  .0704    115    1    100.0    5 
20/09/20  15:20   25.3   25.4   25.3    47   13.2   8.0    NE   0.67  17.0   NNE   25.0   25.1   24.8  1015.4  0.00  0.00   0.000   0.024   35.1    32   15.9   35.7   6.15  .0704    117    1    100.0    5 
20/09/20  15:25   25.1   25.3   25.1    48   13.3   7.0     N   0.58  14.0   ENE   25.1   24.9   24.9  1015.4  0.00  0.00   0.000   0.023   35.1    32   15.9   35.7   6.15  .0704    116    1    100.0    5 
20/09/20  15:30   24.9   25.1   24.9    47   12.9   7.0    NE   0.58  14.0   ENE   24.9   24.7   24.7  1015.4  0.00  0.00   0.000   0.023   35.1    32   15.9   35.7   6.15  .0704    117    1    100.0    5 
20/09/20  15:35   24.9   24.9   24.9    47   12.8   8.0    NE   0.67  13.0     E   24.6   24.7   24.4  1015.3  0.00  0.00   0.000   0.023   35.1    32   15.9   35.7   6.15  .0704    115    1    100.0    5 
20/09/20  15:40   24.9   24.9   24.8    48   13.2   6.0     N   0.50  13.0     N   24.9   24.8   24.8  1015.3  0.00  0.00   0.000   0.023   35.1    32   15.9   35.7   6.15  .0704    116    1    100.0    5 
20/09/20  15:45   24.9   24.9   24.9    45   12.2   6.0     N   0.50  12.0    NE   24.9   24.7   24.7  1015.3  0.00  0.00   0.000   0.023   35.1    32   15.9   35.7   6.15  .0704    117    1    100.0    5 
20/09/20  15:50   24.7   24.9   24.7    46   12.3   8.0   NNE   0.67  15.0    NE   24.4   24.5   24.2  1015.3  0.00  0.00   0.000   0.022   35.1    32   15.9   35.7   6.15  .0704    116    1    100.0    5 
20/09/20  15:55   24.6   24.7   24.6    47   12.5   7.0   NNE   0.58  14.0    NE   24.6   24.4   24.4  1015.3  0.00  0.00   0.000   0.022   35.1    32   15.9   35.7   6.15  .0704    118    1    100.0    5 
20/09/20  16:00   24.6   24.6   24.5    47   12.5   7.0    NE   0.58  14.0   NNE   24.6   24.4   24.4  1015.3  0.00  0.00   0.000   0.022   35.2    32   16.0   35.8   6.14  .0704    117    1    100.0    5 
20/09/20  16:05   24.6   24.6   24.6    47   12.5   6.0    NE   0.50  15.0    NE   24.6   24.4   24.4  1015.2  0.00  0.00   0.000   0.022   35.2    32   16.0   35.8   6.14  .0704    117    1    100.0    5 
20/09/20  16:10   24.4   24.6   24.4    46   12.1   7.0   NNE   0.58  16.0   ENE   24.4   24.3   24.3  1015.2  0.00  0.00   0.000   0.021   35.2    32   16.0   35.8   6.14  .0704    117    1    100.0    5 
20/09/20  16:15   24.1   24.4   24.1    46   11.8   8.0   NNE   0.67  12.0    NE   23.8   23.9   23.7  1015.3  0.00  0.00   0.000   0.020   35.2    32   16.0   35.8   6.14  .0704    117    1    100.0    5 
20/09/20  16:20   24.2   24.2   24.1    46   11.8   6.0   NNE   0.50  15.0   ENE   24.2   24.0   24.0  1015.3  0.00  0.00   0.000   0.020   35.2    32   16.0   35.8   6.14  .0704    117    1    100.0    5 
20/09/20  16:25   24.1   24.2   24.1    44   11.0  10.0   NNE   0.83  18.0   NNE   22.9   23.8   22.7  1015.2  0.00  0.00   0.000   0.020   35.2    32   16.0   35.8   6.14  .0704    116    1    100.0    5 
20/09/20  16:30   24.2   24.2   24.1    44   11.1   8.0   NNE   0.67  17.0    NE   23.9   23.9   23.7  1015.3  0.00  0.00   0.000   0.020   35.2    32   16.0   35.8   6.14  .0704    117    1    100.0    5 
20/09/20  16:35   24.3   24.3   24.2    44   11.2   7.0    NE   0.58  15.0    NE   24.3   24.0   24.0  1015.4  0.00  0.00   0.000   0.021   35.2    32   16.0   35.8   6.14  .0704    117    1    100.0    5 
20/09/20  16:40   24.2   24.3   24.2    44   11.2   8.0   NNE   0.67  16.0   NNE   23.9   23.9   23.7  1015.4  0.00  0.00   0.000   0.020   35.2    32   16.0   35.8   6.14  .0704    116    1    100.0    5 
20/09/20  16:45   24.1   24.2   24.1    44   11.1   8.0   NNE   0.67  18.0    NE   23.8   23.9   23.6  1015.3  0.00  0.00   0.000   0.020   35.2    32   16.0   35.8   6.14  .0704    116    1    100.0    5 
20/09/20  16:50   24.1   24.2   24.1    45   11.4   8.0     N   0.67  16.0    NE   23.8   23.9   23.6  1015.4  0.00  0.00   0.000   0.020   35.3    32   16.1   35.9   6.14  .0704    117    1    100.0    5 
20/09/20  16:55   24.1   24.1   24.1    45   11.4   7.0   NNE   0.58  14.0     E   24.1   23.9   23.9  1015.5  0.00  0.00   0.000   0.020   35.2    32   16.0   35.8   6.14  .0704    116    1    100.0    5 
20/09/20  17:00   23.9   24.1   23.9    44   10.9   8.0    NE   0.67  16.0   ENE   23.6   23.7   23.4  1015.4  0.00  0.00   0.000   0.019   35.2    32   16.0   35.8   6.14  .0704    117    1    100.0    5 
20/09/20  17:05   23.8   23.9   23.8    44   10.8   7.0   NNE   0.58  14.0   NNE   23.8   23.5   23.5  1015.3  0.00  0.00   0.000   0.019   35.2    32   16.0   35.8   6.14  .0704    117    1    100.0    5 
20/09/20  17:10   23.8   23.8   23.7    43   10.4   6.0     N   0.50  12.0   NNE   23.8   23.5   23.5  1015.4  0.00  0.00   0.000   0.019   35.3    32   16.1   35.9   6.14  .0703    117    1    100.0    5 
20/09/20  17:15   23.7   23.8   23.7    43   10.3   7.0   NNE   0.58  13.0    NE   23.7   23.3   23.3  1015.3  0.00  0.00   0.000   0.019   35.3    32   16.1   35.9   6.14  .0703    117    1    100.0    5 
20/09/20  17:20   23.6   23.7   23.6    43   10.2   8.0   NNE   0.67  14.0     N   23.3   23.2   22.9  1015.4  0.00  0.00   0.000   0.018   35.3    32   16.1   35.9   6.14  .0703    117    1    100.0    5 
20/09/20  17:25   23.6   23.6   23.5    42    9.9   7.0   NNE   0.58  13.0    NE   23.6   23.2   23.2  1015.4  0.00  0.00   0.000   0.018   35.3    32   16.1   35.9   6.14  .0703    117    1    100.0    5 
20/09/20  17:30   23.5   23.6   23.5    42    9.8   7.0     N   0.58  15.0   NNE   23.5   23.1   23.1  1015.3  0.00  0.00   0.000   0.018   35.3    32   16.1   35.9   6.14  .0703    117    1    100.0    5 
20/09/20  17:35   23.4   23.5   23.4    42    9.8   6.0   NNE   0.50  15.0     E   23.4   23.1   23.1  1015.3  0.00  0.00   0.000   0.018   35.3    32   16.1   35.9   6.14  .0703    117    1    100.0    5 
20/09/20  17:40   23.4   23.5   23.4    41    9.4   8.0   NNE   0.67  14.0     N   23.1   22.9   22.7  1015.4  0.00  0.00   0.000   0.018   35.3    32   16.1   35.9   6.14  .0703    116    1    100.0    5 
20/09/20  17:45   23.3   23.4   23.3    41    9.3   7.0   NNE   0.58  12.0   NNE   23.3   22.8   22.8  1015.4  0.00  0.00   0.000   0.017   35.3    32   16.1   35.9   6.14  .0703    116    1    100.0    5 
20/09/20  17:50   23.2   23.3   23.2    40    8.9   8.0    NE   0.67  14.0    NE   22.9   22.7   22.4  1015.5  0.00  0.00   0.000   0.017   35.3    32   16.1   35.9   6.14  .0704    117    1    100.0    5 
20/09/20  17:55   23.2   23.2   23.2    40    8.8   7.0    NE   0.58  14.0    NE   23.2   22.6   22.6  1015.5  0.00  0.00   0.000   0.017   35.3    32   16.1   35.9   6.14  .0704    116    1    100.0    5 
20/09/20  18:00   23.1   23.2   23.1    41    9.1   5.0   NNE   0.42  15.0    NE   23.1   22.6   22.6  1015.5  0.00  0.00   0.000   0.017   35.3    32   16.1   35.9   6.14  .0704    116    1    100.0    5 
20/09/20  18:05   23.0   23.1   23.0    42    9.4   5.0   NNE   0.42  11.0   NNE   23.0   22.4   22.4  1015.5  0.00  0.00   0.000   0.016   35.3    32   16.1   35.9   6.14  .0704    117    1    100.0    5 
20/09/20  18:10   22.9   23.0   22.9    42    9.3   6.0   NNE   0.50  12.0    NE   22.9   22.4   22.4  1015.4  0.00  0.00   0.000   0.016   35.3    32   16.1   35.9   6.14  .0704    117    1    100.0    5 
20/09/20  18:15   22.8   22.9   22.8    42    9.2   6.0     N   0.50  11.0     N   22.8   22.2   22.2  1015.5  0.00  0.00   0.000   0.016   35.3    32   16.1   35.9   6.14  .0704    117    1    100.0    5 
20/09/20  18:20   22.7   22.8   22.7    42    9.1   7.0   NNE   0.58  12.0   NNE   22.7   22.1   22.1  1015.6  0.00  0.00   0.000   0.015   35.3    32   16.1   36.0   6.14  .0703    116    1    100.0    5 
20/09/20  18:25   22.6   22.7   22.6    41    8.7   6.0   NNE   0.50  13.0   NNE   22.6   21.8   21.8  1015.6  0.00  0.00   0.000   0.015   35.4    32   16.2   36.1   6.14  .0703    117    1    100.0    5 
20/09/20  18:30   22.5   22.6   22.4    39    7.8   7.0   NNE   0.58  13.0   ENE   22.5   21.6   21.6  1015.6  0.00  0.00   0.000   0.014   35.4    32   16.2   36.1   6.14  .0703    117    1    100.0    5 
20/09/20  18:35   22.4   22.5   22.3    39    7.7   8.0    NE   0.67  15.0   NNE   22.1   21.4   21.1  1015.6  0.00  0.00   0.000   0.014   35.4    32   16.2   36.1   6.14  .0703    116    1    100.0    5 
20/09/20  18:40   22.3   22.4   22.3    39    7.6   8.0   NNE   0.67  17.0   NNE   22.0   21.2   20.9  1015.7  0.00  0.00   0.000   0.014   35.4    32   16.2   36.1   6.14  .0703    117    1    100.0    5 
20/09/20  18:45   22.1   22.3   22.1    41    8.2   8.0   NNE   0.67  17.0    NE   21.8   21.1   20.8  1015.6  0.00  0.00   0.000   0.013   35.4    32   16.2   36.1   6.14  .0703    115    1    100.0    5 
20/09/20  18:50   21.9   22.1   21.9    43    8.7   6.0   NNE   0.50  13.0   NNE   21.9   20.8   20.8  1015.8  0.00  0.00   0.000   0.012   35.4    32   16.2   36.1   6.14  .0703    117    1    100.0    5 
20/09/20  18:55   21.7   21.9   21.7    44    8.9   6.0    NE   0.50  14.0    NE   21.7   20.6   20.6  1015.9  0.00  0.00   0.000   0.012   35.4    32   16.2   36.2   6.13  .0703    116    1    100.0    5 
20/09/20  19:00   21.5   21.7   21.5    45    9.1   6.0   NNE   0.50  13.0   NNE   21.5   20.4   20.4  1016.0  0.00  0.00   0.000   0.011   35.4    32   16.2   36.2   6.13  .0703    117    1    100.0    5 
20/09/20  19:05   21.3   21.5   21.3    45    8.9   7.0   NNE   0.58  13.0   NNE   21.3   20.2   20.2  1016.0  0.00  0.00   0.000   0.010   35.4    32   16.2   36.2   6.13  .0703    118    1    100.0    5 
20/09/20  19:10   21.1   21.3   21.1    45    8.7   6.0   NNE   0.50  14.0   NNE   21.1   19.9   19.9  1016.1  0.00  0.00   0.000   0.010   35.4    32   16.2   36.2   6.13  .0703    116    1    100.0    5 
20/09/20  19:15   21.0   21.1   20.9    45    8.6   7.0   NNE   0.58  12.0   NNE   21.0   19.8   19.8  1016.2  0.00  0.00   0.000   0.009   35.4    32   16.2   36.2   6.13  .0704    116    1    100.0    5 
20/09/20  19:20   20.9   21.0   20.9    45    8.5   6.0   NNE   0.50  12.0   ENE   20.9   19.7   19.7  1016.2  0.00  0.00   0.000   0.009   35.5    32   16.3   36.3   6.13  .0703    117    1    100.0    5 
20/09/20  19:25   20.8   20.9   20.8    46    8.7   6.0   NNE   0.50  14.0    NE   20.8   19.7   19.7  1016.3  0.00  0.00   0.000   0.008   35.5    32   16.3   36.3   6.13  .0703    116    1    100.0    5 
20/09/20  19:30   20.7   20.8   20.7    46    8.7   5.0    NE   0.42  10.0    NE   20.7   19.7   19.7  1016.3  0.00  0.00   0.000   0.008   35.5    32   16.3   36.3   6.13  .0703    116    1    100.0    5 
20/09/20  19:35   20.6   20.7   20.6    47    8.9   5.0   NNE   0.42  12.0   NNE   20.6   19.7   19.7  1016.4  0.00  0.00   0.000   0.008   35.5    32   16.3   36.3   6.13  .0703    117    1    100.0    5 
20/09/20  19:40   20.5   20.6   20.5    47    8.8   5.0    NE   0.42  10.0   NNE   20.5   19.6   19.6  1016.4  0.00  0.00   0.000   0.008   35.5    32   16.3   36.3   6.13  .0704    117    1    100.0    5 
20/09/20  19:45   20.4   20.5   20.4    48    9.0   5.0    NE   0.42  13.0   ENE   20.4   19.5   19.5  1016.5  0.00  0.00   0.000   0.007   35.5    32   16.3   36.3   6.13  .0704    115    1    100.0    5 
20/09/20  19:50   20.3   20.4   20.3    48    9.0   6.0   ENE   0.50  10.0   ENE   20.3   19.4   19.4  1016.6  0.00  0.00   0.000   0.007   35.5    31   15.8   36.1   5.93  .0704    117    1    100.0    5 
20/09/20  19:55   20.3   20.3   20.2    48    8.9   5.0   ENE   0.42  14.0   ENE   20.3   19.4   19.4  1016.6  0.00  0.00   0.000   0.007   35.5    31   15.8   36.1   5.93  .0704    117    1    100.0    5 
20/09/20  20:00   20.2   20.3   20.2    48    8.8   5.0    NE   0.42   9.0   ENE   20.2   19.3   19.3  1016.6  0.00  0.00   0.000   0.006   35.5    32   16.3   36.3   6.13  .0704    117    1    100.0    5 
20/09/20  20:05   20.1   20.2   20.1    48    8.8   4.0   NNE   0.33  10.0     E   20.1   19.3   19.3  1016.6  0.00  0.00   0.000   0.006   35.5    32   16.3   36.3   6.13  .0704    117    1    100.0    5 
20/09/20  20:10   20.0   20.1   20.0    49    9.0   7.0    NE   0.58  17.0   ENE   20.0   19.2   19.2  1016.7  0.00  0.00   0.000   0.006   35.6    32   16.3   36.3   6.13  .0704    118    1    100.0    5 
20/09/20  20:15   19.9   20.0   19.9    50    9.2   6.0    NE   0.50  13.0    NE   19.9   19.2   19.2  1016.8  0.00  0.00   0.000   0.006   35.6    32   16.3   36.3   6.13  .0704    117    1    100.0    5 
20/09/20  20:20   19.8   19.9   19.8    51    9.4   6.0   ENE   0.50  12.0   ENE   19.8   19.2   19.2  1016.8  0.00  0.00   0.000   0.005   35.6    32   16.3   36.3   6.13  .0704    117    1    100.0    5 
20/09/20  20:25   19.8   19.9   19.8    51    9.3   6.0    NE   0.50  12.0   ENE   19.8   19.1   19.1  1016.9  0.00  0.00   0.000   0.005   35.6    32   16.3   36.3   6.13  .0704    117    1    100.0    5 
20/09/20  20:30   19.7   19.8   19.7    52    9.5   4.0    NE   0.33   9.0   ENE   19.7   19.0   19.0  1016.8  0.00  0.00   0.000   0.005   35.6    32   16.3   36.3   6.13  .0704    116    1    100.0    5 
20/09/20  20:35   19.6   19.7   19.6    53    9.7   4.0   NNE   0.33   9.0    NE   19.6   18.9   18.9  1016.9  0.00  0.00   0.000   0.004   35.6    32   16.3   36.3   6.13  .0704    116    1    100.0    5 
20/09/20  20:40   19.4   19.6   19.4    53    9.6   4.0   NNE   0.33   9.0   NNE   19.4   18.8   18.8  1016.9  0.00  0.00   0.000   0.004   35.6    32   16.3   36.3   6.13  .0704    117    1    100.0    5 
20/09/20  20:45   19.3   19.4   19.3    54    9.8   4.0   NNE   0.33  12.0   ENE   19.3   18.8   18.8  1016.9  0.00  0.00   0.000   0.003   35.6    32   16.3   36.3   6.13  .0704    117    1    100.0    5 
20/09/20  20:50   19.3   19.4   19.3    55   10.1   5.0   NNE   0.42  12.0   ENE   19.3   18.8   18.8  1017.0  0.00  0.00   0.000   0.003   35.6    32   16.3   36.3   6.13  .0704    116    1    100.0    5 
20/09/20  20:55   19.3   19.3   19.3    55   10.0   5.0   NNE   0.42  10.0   ENE   19.3   18.7   18.7  1016.9  0.00  0.00   0.000   0.003   35.6    32   16.3   36.3   6.13  .0704    116    1    100.0    5 
20/09/20  21:00   19.2   19.3   19.2    56   10.2   5.0    NE   0.42  10.0   NNE   19.2   18.7   18.7  1016.9  0.00  0.00   0.000   0.003   35.6    32   16.3   36.3   6.13  .0704    117    1    100.0    5 
20/09/20  21:05   19.1   19.2   19.1    56   10.1   5.0    NE   0.42  12.0    NE   19.1   18.6   18.6  1016.9  0.00  0.00   0.000   0.003   35.6    32   16.3   36.3   6.13  .0704    117    1    100.0    5 
20/09/20  21:10   19.0   19.1   19.0    57   10.3   5.0   NNE   0.42   9.0   NNE   19.0   18.5   18.5  1016.9  0.00  0.00   0.000   0.002   35.6    32   16.3   36.3   6.13  .0704    118    1    100.0    5 
20/09/20  21:15   18.9   19.0   18.9    57   10.2   5.0    NE   0.42  10.0    NE   18.9   18.4   18.4  1016.9  0.00  0.00   0.000   0.002   35.6    32   16.4   36.4   6.13  .0704    117    1    100.0    5 
20/09/20  21:20   18.8   18.9   18.8    57   10.1   4.0    NE   0.33  11.0    NE   18.8   18.2   18.2  1017.0  0.00  0.00   0.000   0.002   35.6    32   16.4   36.4   6.13  .0704    117    1    100.0    5 
20/09/20  21:25   18.7   18.8   18.7    57   10.0   4.0    NE   0.33   8.0    NE   18.7   18.1   18.1  1017.0  0.00  0.00   0.000   0.001   35.6    32   16.4   36.4   6.13  .0704    116    1    100.0    5 
20/09/20  21:30   18.6   18.7   18.6    58   10.1   5.0    NE   0.42  10.0   ENE   18.6   18.1   18.1  1017.0  0.00  0.00   0.000   0.001   35.6    32   16.4   36.4   6.13  .0704    115    1    100.0    5 
20/09/20  21:35   18.4   18.6   18.4    58   10.0   3.0    NE   0.25   8.0   ENE   18.4   17.9   17.9  1017.0  0.00  0.00   0.000   0.000   35.6    32   16.4   36.4   6.13  .0704    117    1    100.0    5 
20/09/20  21:40   18.3   18.4   18.3    58    9.9   5.0    NE   0.42   9.0   ENE   18.3   17.7   17.7  1017.1  0.00  0.00   0.000   0.000   35.6    32   16.4   36.4   6.13  .0704    117    1    100.0    5 
20/09/20  21:45   18.2   18.3   18.2    58    9.8   3.0   NNE   0.25   6.0    NE   18.2   17.6   17.6  1017.1  0.00  0.00   0.001   0.000   35.6    32   16.4   36.4   6.13  .0704    117    1    100.0    5 
20/09/20  21:50   18.1   18.2   18.1    59   10.0   4.0    NE   0.33   8.0   NNE   18.1   17.6   17.6  1017.1  0.00  0.00   0.001   0.000   35.6    32   16.4   36.4   6.13  .0704    117    1    100.0    5 
20/09/20  21:55   18.0   18.1   18.0    59    9.9   4.0   NNE   0.33   7.0   NNE   18.0   17.5   17.5  1017.1  0.00  0.00   0.001   0.000   35.6    32   16.4   36.4   6.13  .0704    117    1    100.0    5 
20/09/20  22:00   17.9   18.0   17.9    59    9.8   4.0     N   0.33   8.0    NE   17.9   17.3   17.3  1017.1  0.00  0.00   0.002   0.000   35.6    32   16.4   36.4   6.13  .0704    116    1    100.0    5 
20/09/20  22:05   17.8   17.9   17.8    60   10.0   4.0   NNE   0.33   9.0   NNE   17.8   17.3   17.3  1017.0  0.00  0.00   0.002   0.000   35.6    32   16.4   36.4   6.13  .0704    114    1    100.0    5 
20/09/20  22:10   17.7   17.8   17.7    60    9.9   4.0   NNE   0.33   8.0   NNE   17.7   17.2   17.2  1017.0  0.00  0.00   0.002   0.000   35.6    32   16.3   36.3   6.13  .0704    117    1    100.0    5 
20/09/20  22:15   17.7   17.8   17.7    61   10.0   4.0   NNE   0.33   7.0     N   17.7   17.2   17.2  1017.0  0.00  0.00   0.002   0.000   35.6    32   16.4   36.4   6.13  .0704    118    1    100.0    5 
20/09/20  22:20   17.6   17.7   17.6    61   10.0   5.0    NE   0.42  10.0    NE   17.6   17.1   17.1  1017.0  0.00  0.00   0.003   0.000   35.6    32   16.4   36.4   6.13  .0704    117    1    100.0    5 
20/09/20  22:25   17.6   17.6   17.6    61   10.0   4.0   NNE   0.33  11.0   NNE   17.6   17.1   17.1  1017.1  0.00  0.00   0.003   0.000   35.6    32   16.4   36.4   6.13  .0704    117    1    100.0    5 
20/09/20  22:30   17.6   17.6   17.5    62   10.2   4.0    NE   0.33   9.0     E   17.6   17.1   17.1  1017.1  0.00  0.00   0.003   0.000   35.6    32   16.4   36.4   6.13  .0704    116    1    100.0    5 
20/09/20  22:35   17.4   17.6   17.4    62   10.1   4.0    NE   0.33  10.0    NE   17.4   17.0   17.0  1017.0  0.00  0.00   0.003   0.000   35.6    32   16.4   36.4   6.13  .0704    117    1    100.0    5 
20/09/20  22:40   17.4   17.5   17.4    63   10.3   3.0    NE   0.25   9.0   ENE   17.4   17.1   17.1  1017.0  0.00  0.00   0.003   0.000   35.6    32   16.4   36.4   6.13  .0704    117    1    100.0    5 
20/09/20  22:45   17.4   17.4   17.4    63   10.3   4.0    NE   0.33   8.0    NE   17.4   16.9   16.9  1017.0  0.00  0.00   0.003   0.000   35.6    32   16.3   36.3   6.13  .0704    116    1    100.0    5 
20/09/20  22:50   17.3   17.4   17.3    64   10.5   4.0    NE   0.33   8.0    NE   17.3   16.9   16.9  1017.0  0.00  0.00   0.003   0.000   35.6    32   16.3   36.3   6.13  .0704    117    1    100.0    5 
20/09/20  22:55   17.3   17.3   17.3    65   10.6   4.0   NNE   0.33   9.0    NE   17.3   16.9   16.9  1016.9  0.00  0.00   0.004   0.000   35.6    32   16.4   36.4   6.13  .0704    114    1    100.0    5 
20/09/20  23:00   17.2   17.3   17.2    66   10.8   4.0    NE   0.33  10.0   ENE   17.2   16.9   16.9  1017.0  0.00  0.00   0.004   0.000   35.6    32   16.3   36.3   6.13  .0704    117    1    100.0    5 
20/09/20  23:05   17.2   17.2   17.2    67   11.0   4.0    NE   0.33   7.0    NE   17.2   16.9   16.9  1016.9  0.00  0.00   0.004   0.000   35.6    31   15.8   36.1   5.93  .0704    117    1    100.0    5 
20/09/20  23:10   17.1   17.2   17.1    68   11.2   4.0    NE   0.33   9.0    NE   17.1   16.8   16.8  1017.0  0.00  0.00   0.004   0.000   35.6    31   15.8   36.1   5.93  .0704    116    1    100.0    5 
20/09/20  23:15   17.1   17.1   17.0    68   11.1   3.0    NE   0.25   7.0   ENE   17.1   16.8   16.8  1017.0  0.00  0.00   0.004   0.000   35.6    31   15.8   36.1   5.93  .0704    117    1    100.0    5 
20/09/20  23:20   16.9   17.1   16.9    69   11.2   3.0   NNE   0.25   8.0    NE   16.9   16.7   16.7  1017.0  0.00  0.00   0.005   0.000   35.6    31   15.8   36.1   5.93  .0704    118    1    100.0    5 
20/09/20  23:25   16.9   16.9   16.9    70   11.4   3.0   NNE   0.25   5.0   NNE   16.9   16.7   16.7  1017.0  0.00  0.00   0.005   0.000   35.6    31   15.8   36.1   5.93  .0704    116    1    100.0    5 
20/09/20  23:30   16.8   16.9   16.8    70   11.3   4.0   NNE   0.33   7.0   ENE   16.8   16.6   16.6  1016.9  0.00  0.00   0.005   0.000   35.6    31   15.8   36.1   5.93  .0704    117    1    100.0    5 
20/09/20  23:35   16.8   16.8   16.7    71   11.5   4.0    NE   0.33   7.0    NE   16.8   16.6   16.6  1016.8  0.00  0.00   0.005   0.000   35.6    31   15.8   36.1   5.93  .0704    117    1    100.0    5 
20/09/20  23:40   16.7   16.8   16.7    72   11.6   4.0    NE   0.33   8.0   ENE   16.7   16.4   16.4  1016.9  0.00  0.00   0.006   0.000   35.6    31   15.8   36.1   5.93  .0704    116    1    100.0    5 
20/09/20  23:45   16.6   16.7   16.6    72   11.5   5.0   NNE   0.42  10.0    NE   16.6   16.4   16.4  1016.8  0.00  0.00   0.006   0.000   35.5    31   15.8   36.1   5.93  .0704    116    1    100.0    5 
20/09/20  23:50   16.6   16.6   16.5    73   11.7   5.0     N   0.42   9.0   NNE   16.6   16.4   16.4  1016.8  0.00  0.00   0.006   0.000   35.5    31   15.8   36.1   5.93  .0704    116    1    100.0    5 
20/09/20  23:55   16.4   16.6   16.4    74   11.8   4.0     N   0.33   7.0     N   16.4   16.3   16.3  1016.9  0.00  0.00   0.007   0.000   35.5    31   15.8   36.1   5.93  .0704    117    1    100.0    5 
21/09/20  00:00   16.4   16.5   16.4    74   11.8   4.0     N   0.33   7.0   ENE   16.4   16.3   16.3  1016.9  0.00  0.00   0.007   0.000   35.5    31   15.8   36.1   5.93  .0704    116    1    100.0    5 
21/09/20   0:05   16.4   16.4   16.4    75   12.0   6.0     N   0.50   9.0     N   16.4   16.3   16.3  1016.9  0.00  0.00   0.007   0.000   35.5    31   15.8   36.1   5.93  .0704    116    1    100.0    5 
21/09/20   0:10   16.4   16.4   16.4    75   11.9   6.0     N   0.50  10.0     N   16.3   16.3   16.2  1016.9  0.00  0.00   0.007   0.000   35.5    31   15.8   36.1   5.93  .0704    116    1    100.0    5 
21/09/20   0:15   16.3   16.4   16.3    76   12.1   6.0     N   0.50   9.0     N   16.3   16.2   16.2  1017.0  0.00  0.00   0.007   0.000   35.4    31   15.7   35.9   5.93  .0704    117    1    100.0    5 
21/09/20   0:20   16.3   16.3   16.3    77   12.2   5.0     N   0.42  10.0     N   16.3   16.2   16.2  1017.0  0.00  0.00   0.007   0.000   35.4    31   15.7   35.9   5.93  .0704    117    1    100.0    5 
21/09/20   0:25   16.3   16.3   16.2    77   12.2   4.0     N   0.33   8.0   NNE   16.3   16.2   16.2  1017.0  0.00  0.00   0.007   0.000   35.4    31   15.7   35.9   5.93  .0705    116    1    100.0    5 
21/09/20   0:30   16.3   16.3   16.2    78   12.4   4.0     N   0.33   7.0   NNE   16.3   16.2   16.2  1017.0  0.00  0.00   0.007   0.000   35.4    31   15.7   35.9   5.93  .0705    116    1    100.0    5 
21/09/20   0:35   16.2   16.3   16.2    79   12.6   4.0     N   0.33   9.0    NE   16.2   16.2   16.2  1017.0  0.00  0.00   0.007   0.000   35.4    31   15.7   35.9   5.93  .0705    116    1    100.0    5 
21/09/20   0:40   16.2   16.2   16.2    79   12.5   4.0   NNE   0.33   9.0   NNE   16.2   16.2   16.2  1017.0  0.00  0.00   0.008   0.000   35.4    31   15.7   35.9   5.93  .0704    116    1    100.0    5 
21/09/20   0:45   16.2   16.2   16.2    80   12.7   5.0   NNE   0.42   9.0   NNE   16.2   16.2   16.2  1017.0  0.00  0.00   0.008   0.000   35.4    31   15.7   35.9   5.94  .0705    118    1    100.0    5 
21/09/20   0:50   16.1   16.2   16.1    81   12.8   6.0   NNE   0.50  11.0    NE   15.9   16.1   15.9  1016.9  0.00  0.00   0.008   0.000   35.4    31   15.7   35.9   5.94  .0705    117    1    100.0    5 
21/09/20   0:55   16.0   16.1   16.0    82   12.9   5.0     N   0.42   9.0   NNE   16.0   16.1   16.1  1017.0  0.00  0.00   0.008   0.000   35.4    31   15.7   35.9   5.94  .0705    117    1    100.0    5 
21/09/20   1:00   15.9   16.1   15.9    82   12.9   2.0   NNE   0.17   6.0    NE   15.9   16.0   16.0  1017.0  0.00  0.00   0.008   0.000   35.4    31   15.7   35.9   5.94  .0705    117    1    100.0    5 
21/09/20   1:05   15.9   16.0   15.9    82   12.9   3.0   NNE   0.25   6.0   NNE   15.9   16.0   16.0  1016.9  0.00  0.00   0.008   0.000   35.4    31   15.7   35.9   5.94  .0705    117    1    100.0    5 
21/09/20   1:10   15.9   15.9   15.9    83   13.0   5.0   NNE   0.42   9.0   NNE   15.9   15.9   15.9  1016.9  0.00  0.00   0.008   0.000   35.4    31   15.7   35.9   5.94  .0705    117    1    100.0    5 
21/09/20   1:15   15.8   15.9   15.8    84   13.1   6.0   NNE   0.50  10.0    NE   15.7   15.9   15.7  1016.9  0.00  0.00   0.009   0.000   35.4    31   15.7   35.9   5.94  .0705    117    1    100.0    5 
21/09/20   1:20   15.8   15.8   15.8    84   13.1   5.0     N   0.42   9.0   NNE   15.8   15.8   15.8  1016.9  0.00  0.00   0.009   0.000   35.4    31   15.7   35.9   5.94  .0705    116    1    100.0    5 
21/09/20   1:25   15.8   15.8   15.8    84   13.1   4.0    NE   0.33   9.0   NNE   15.8   15.8   15.8  1016.9  0.00  0.00   0.009   0.000   35.4    31   15.7   35.9   5.94  .0705    116    1    100.0    5 
21/09/20   1:30   15.8   15.8   15.8    84   13.1   5.0   NNE   0.42   9.0   NNE   15.8   15.8   15.8  1016.9  0.00  0.00   0.009   0.000   35.3    31   15.6   35.8   5.94  .0705    116    1    100.0    5 
21/09/20   1:35   15.8   15.8   15.8    85   13.3   6.0     N   0.50  11.0   NNE   15.6   15.8   15.7  1016.9  0.00  0.00   0.009   0.000   35.3    31   15.6   35.8   5.94  .0705    117    1    100.0    5 
21/09/20   1:40   15.8   15.8   15.8    85   13.3   7.0     N   0.58  12.0   NNE   15.4   15.8   15.4  1016.8  0.00  0.00   0.009   0.000   35.3    31   15.6   35.7   5.94  .0705    114    1    100.0    5 
21/09/20   1:45   15.8   15.8   15.8    85   13.3   5.0     N   0.42   9.0   ENE   15.8   15.8   15.8  1016.8  0.00  0.00   0.009   0.000   35.3    31   15.6   35.7   5.94  .0705    118    1    100.0    5 
21/09/20   1:50   15.8   15.8   15.8    85   13.3   5.0     N   0.42   9.0     N   15.8   15.8   15.8  1016.7  0.00  0.00   0.009   0.000   35.3    31   15.6   35.7   5.94  .0705    116    1    100.0    5 
21/09/20   1:55   15.7   15.8   15.7    85   13.2   6.0     N   0.50  10.0    NE   15.6   15.8   15.6  1016.7  0.00  0.00   0.009   0.000   35.3    31   15.6   35.7   5.94  .0705    117    1    100.0    5 
21/09/20   2:00   15.7   15.7   15.7    85   13.2   7.0     N   0.58  11.0   NNE   15.2   15.7   15.3  1016.6  0.00  0.00   0.009   0.000   35.2    31   15.5   35.7   5.94  .0705    117    1    100.0    5 
21/09/20   2:05   15.6   15.7   15.6    85   13.1   5.0   NNE   0.42  10.0   NNE   15.6   15.7   15.7  1016.6  0.00  0.00   0.009   0.000   35.2    31   15.5   35.7   5.94  .0705    116    1    100.0    5 
21/09/20   2:10   15.6   15.7   15.6    86   13.3   4.0     N   0.33   6.0   NNE   15.6   15.7   15.7  1016.5  0.00  0.00   0.009   0.000   35.2    31   15.5   35.7   5.94  .0705    117    1    100.0    5 
21/09/20   2:15   15.6   15.6   15.6    86   13.3   4.0     N   0.33   8.0   NNE   15.6   15.7   15.7  1016.5  0.00  0.00   0.009   0.000   35.2    31   15.5   35.7   5.94  .0705    117    1    100.0    5 
21/09/20   2:20   15.6   15.6   15.6    86   13.2   5.0     N   0.42  10.0     N   15.6   15.6   15.6  1016.6  0.00  0.00   0.010   0.000   35.2    31   15.5   35.7   5.94  .0705    115    1    100.0    5 
21/09/20   2:25   15.6   15.6   15.6    86   13.3   6.0     N   0.50  10.0   NNE   15.4   15.7   15.4  1016.5  0.00  0.00   0.009   0.000   35.2    31   15.5   35.7   5.94  .0705    117    1    100.0    5 
21/09/20   2:30   15.6   15.6   15.6    86   13.2   4.0     N   0.33   8.0    NE   15.6   15.6   15.6  1016.5  0.00  0.00   0.010   0.000   35.2    31   15.5   35.7   5.94  .0705    115    1    100.0    5 
21/09/20   2:35   15.5   15.6   15.5    87   13.3   5.0     N   0.42   9.0   NNE   15.5   15.6   15.6  1016.5  0.00  0.00   0.010   0.000   35.2    31   15.5   35.7   5.94  .0705    116    1    100.0    5 
21/09/20   2:40   15.5   15.6   15.5    87   13.3   6.0     N   0.50  10.0     N   15.3   15.6   15.4  1016.5  0.00  0.00   0.010   0.000   35.2    31   15.5   35.7   5.94  .0705    117    1    100.0    5 
21/09/20   2:45   15.4   15.5   15.4    87   13.3   7.0     N   0.58  12.0     N   15.0   15.6   15.1  1016.4  0.00  0.00   0.010   0.000   35.2    31   15.5   35.6   5.94  .0705    117    1    100.0    5 
21/09/20   2:50   15.4   15.4   15.3    87   13.2   8.0     N   0.67  13.0   NNW   14.5   15.5   14.6  1016.4  0.00  0.00   0.010   0.000   35.2    31   15.5   35.6   5.94  .0705    117    1    100.0    5 
21/09/20   2:55   15.3   15.4   15.3    87   13.1   8.0     N   0.67  14.0   NNE   14.4   15.3   14.4  1016.4  0.00  0.00   0.011   0.000   35.2    31   15.5   35.6   5.94  .0705    117    1    100.0    5 
21/09/20   3:00   15.2   15.3   15.2    88   13.2   7.0     N   0.58  11.0   NNE   14.7   15.3   14.8  1016.4  0.00  0.00   0.011   0.000   35.2    31   15.5   35.6   5.94  .0705    117    1    100.0    5 
21/09/20   3:05   15.2   15.2   15.2    88   13.2   7.0     N   0.58  12.0   NNE   14.7   15.2   14.7  1016.3  0.00  0.00   0.011   0.000   35.1    31   15.4   35.5   5.95  .0705    115    1    100.0    5 
21/09/20   3:10   15.2   15.2   15.1    88   13.2   8.0     N   0.67  11.0     N   14.3   15.2   14.3  1016.2  0.00  0.00   0.011   0.000   35.1    31   15.4   35.5   5.95  .0705    116    1    100.0    5 
21/09/20   3:15   15.1   15.2   15.1    88   13.1   7.0     N   0.58  11.0     N   14.6   15.2   14.6  1016.2  0.00  0.00   0.011   0.000   35.1    31   15.4   35.5   5.95  .0705    117    1    100.0    5 
21/09/20   3:20   15.1   15.2   15.1    88   13.1   7.0     N   0.58  12.0     N   14.6   15.2   14.6  1016.2  0.00  0.00   0.011   0.000   35.2    31   15.5   35.6   5.94  .0705    117    1    100.0    5 
21/09/20   3:25   15.1   15.1   15.1    89   13.3   7.0     N   0.58  11.0     N   14.5   15.2   14.6  1016.2  0.00  0.00   0.011   0.000   35.2    31   15.5   35.6   5.94  .0705    116    1    100.0    5 
21/09/20   3:30   15.1   15.1   15.0    89   13.3   7.0     N   0.58  10.0     N   14.5   15.2   14.6  1016.0  0.00  0.00   0.011   0.000   35.1    31   15.4   35.5   5.95  .0705    117    1    100.0    5 
21/09/20   3:35   15.0   15.1   15.0    89   13.2   7.0     N   0.58  11.0   NNE   14.4   15.1   14.6  1016.0  0.00  0.00   0.012   0.000   35.1    31   15.4   35.5   5.95  .0705    117    1    100.0    5 
21/09/20   3:40   15.0   15.0   14.9    89   13.2   7.0     N   0.58  12.0   NNE   14.4   15.1   14.6  1016.0  0.00  0.00   0.012   0.000   35.1    31   15.4   35.5   5.95  .0705    116    1    100.0    5 
21/09/20   3:45   15.0   15.0   14.9    89   13.2   8.0     N   0.67  11.0   NNE   14.1   15.1   14.2  1016.0  0.00  0.00   0.012   0.000   35.1    31   15.4   35.4   5.95  .0705    117    1    100.0    5 
21/09/20   3:50   14.9   15.0   14.9    89   13.1   6.0     N   0.50  10.0     N   14.6   15.1   14.7  1015.9  0.00  0.00   0.012   0.000   35.1    31   15.4   35.4   5.95  .0705    116    1    100.0    5 
21/09/20   3:55   14.9   15.0   14.9    89   13.1   7.0     N   0.58  10.0     N   14.3   14.9   14.4  1015.8  0.00  0.00   0.012   0.000   35.1    31   15.4   35.5   5.95  .0705    118    1    100.0    5 
21/09/20   4:00   14.9   14.9   14.8    89   13.1   7.0     N   0.58  10.0     N   14.3   14.9   14.4  1015.8  0.00  0.00   0.012   0.000   35.1    31   15.4   35.5   5.95  .0705    117    1    100.0    5 
21/09/20   4:05   14.8   14.9   14.8    89   13.0   7.0     N   0.58  10.0     N   14.2   14.9   14.3  1015.8  0.00  0.00   0.012   0.000   35.1    31   15.4   35.5   5.95  .0705    117    1    100.0    5 
21/09/20   4:10   14.8   14.8   14.8    89   13.0   7.0     N   0.58  10.0     N   14.2   14.8   14.2  1015.9  0.00  0.00   0.012   0.000   35.1    31   15.4   35.5   5.95  .0705    116    1    100.0    5 
21/09/20   4:15   14.7   14.8   14.7    89   12.9   7.0     N   0.58  10.0     N   14.1   14.8   14.2  1015.9  0.00  0.00   0.013   0.000   35.1    31   15.4   35.5   5.95  .0705    116    1    100.0    5 
21/09/20   4:20   14.7   14.8   14.7    90   13.1   8.0     N   0.67  12.0     N   13.7   14.8   13.8  1015.9  0.00  0.00   0.013   0.000   35.1    31   15.4   35.5   5.95  .0705    117    1    100.0    5 
21/09/20   4:25   14.7   14.7   14.7    90   13.1   8.0     N   0.67  12.0   NNE   13.7   14.8   13.8  1016.0  0.00  0.00   0.013   0.000   35.1    31   15.4   35.4   5.95  .0705    117    1    100.0    5 
21/09/20   4:30   14.7   14.7   14.7    90   13.0   9.0     N   0.75  13.0     N   13.2   14.7   13.3  1015.9  0.00  0.00   0.013   0.000   35.1    31   15.4   35.4   5.95  .0705    117    1    100.0    5 
21/09/20   4:35   14.6   14.7   14.6    90   12.9   8.0     N   0.67  12.0   NNW   13.5   14.6   13.6  1016.0  0.00  0.00   0.013   0.000   35.1    31   15.4   35.4   5.95  .0705    117    1    100.0    5 
21/09/20   4:40   14.5   14.6   14.4    90   12.9  10.0     N   0.83  14.0     N   12.6   14.6   12.7  1016.1  0.00  0.00   0.013   0.000   35.0    31   15.3   35.3   5.95  .0705    117    1    100.0    5 
21/09/20   4:45   14.4   14.5   14.4    90   12.8   8.0     N   0.67  12.0     N   13.3   14.4   13.4  1016.1  0.00  0.00   0.014   0.000   35.0    31   15.3   35.3   5.95  .0705    117    1    100.0    5 
21/09/20   4:50   14.4   14.4   14.3    90   12.8   8.0     N   0.67  12.0     N   13.3   14.4   13.4  1016.0  0.00  0.00   0.014   0.000   35.0    31   15.3   35.3   5.95  .0705    115    1    100.0    5 
21/09/20   4:55   14.3   14.4   14.3    90   12.7   8.0     N   0.67  11.0     N   13.2   14.3   13.2  1016.0  0.00  0.00   0.014   0.000   35.0    31   15.3   35.3   5.95  .0705    118    1    100.0    5 
21/09/20   5:00   14.2   14.3   14.2    90   12.6   8.0     N   0.67  11.0     N   13.1   14.3   13.2  1016.0  0.00  0.00   0.014   0.000   34.9    31   15.3   35.3   5.95  .0705    116    1    100.0    5 
21/09/20   5:05   14.2   14.2   14.2    91   12.7   8.0     N   0.67  10.0   NNE   13.1   14.2   13.1  1015.9  0.00  0.00   0.014   0.000   34.9    31   15.3   35.3   5.95  .0705    116    1    100.0    5 
21/09/20   5:10   14.1   14.2   14.1    91   12.7   8.0     N   0.67  11.0     N   13.0   14.2   13.1  1016.0  0.00  0.00   0.015   0.000   34.9    31   15.3   35.2   5.96  .0705    117    1    100.0    5 
21/09/20   5:15   14.1   14.2   14.1    91   12.6   8.0     N   0.67  12.0     N   12.9   14.1   13.0  1016.0  0.00  0.00   0.015   0.000   34.9    31   15.3   35.2   5.96  .0705    117    1    100.0    5 
21/09/20   5:20   14.1   14.1   14.1    91   12.7   8.0     N   0.67  11.0     N   13.0   14.2   13.1  1016.0  0.00  0.00   0.015   0.000   34.9    31   15.3   35.2   5.96  .0705    116    1    100.0    5 
21/09/20   5:25   14.1   14.1   14.1    91   12.6   7.0     N   0.58  11.0     N   13.3   14.1   13.4  1016.1  0.00  0.00   0.015   0.000   34.9    31   15.3   35.2   5.96  .0705    115    1    100.0    5 
21/09/20   5:30   14.1   14.1   14.1    91   12.6   8.0     N   0.67  12.0     N   12.9   14.1   13.0  1016.1  0.00  0.00   0.015   0.000   34.8    31   15.2   35.1   5.96  .0706    116    1    100.0    5 
21/09/20   5:35   14.1   14.1   14.1    92   12.8   7.0     N   0.58  12.0   NNE   13.4   14.2   13.5  1016.1  0.00  0.00   0.015   0.000   34.8    31   15.2   35.1   5.96  .0706    117    1    100.0    5 
21/09/20   5:40   14.1   14.1   14.1    91   12.6   7.0     N   0.58  11.0     N   13.3   14.1   13.4  1016.1  0.00  0.00   0.015   0.000   34.8    31   15.2   35.1   5.96  .0706    116    1    100.0    5 
21/09/20   5:45   14.1   14.1   14.1    91   12.6   8.0     N   0.67  12.0     N   12.9   14.1   13.0  1016.1  0.00  0.00   0.015   0.000   34.8    31   15.2   35.1   5.96  .0706    117    1    100.0    5 
21/09/20   5:50   14.1   14.1   14.1    92   12.8   8.0     N   0.67  12.0   NNE   12.9   14.2   13.1  1016.1  0.00  0.00   0.015   0.000   34.8    31   15.2   35.1   5.97  .0706    117    1    100.0    5 
21/09/20   5:55   14.1   14.1   14.0    92   12.8   8.0     N   0.67  12.0   NNE   12.9   14.2   13.1  1016.1  0.00  0.00   0.015   0.000   34.8    31   15.2   35.1   5.97  .0706    116    1    100.0    5 
21/09/20   6:00   14.1   14.1   14.0    92   12.8   8.0     N   0.67  12.0     N   12.9   14.2   13.1  1016.0  0.00  0.00   0.015   0.000   34.8    31   15.2   35.1   5.97  .0706    116    1    100.0    5 
21/09/20   6:05   14.1   14.1   14.0    92   12.8   9.0     N   0.75  13.0   NNW   12.5   14.2   12.6  1016.0  0.00  0.00   0.015   0.000   34.8    31   15.2   35.1   5.97  .0706    116    1    100.0    5 
21/09/20   6:10   14.0   14.1   14.0    92   12.7   9.0     N   0.75  13.0     N   12.4   14.1   12.4  1016.0  0.00  0.00   0.015   0.000   34.7    31   15.1   35.0   5.97  .0706    117    1    100.0    5 
21/09/20   6:15   14.0   14.1   13.9    92   12.7   8.0     N   0.67  14.0   NNW   12.8   14.1   12.9  1016.0  0.00  0.00   0.015   0.000   34.7    31   15.1   35.0   5.97  .0706    117    1    100.0    5 
21/09/20   6:20   14.0   14.0   13.9    92   12.7   9.0     N   0.75  13.0     N   12.4   14.1   12.4  1016.0  0.00  0.00   0.015   0.000   34.7    31   15.1   35.0   5.97  .0706    117    1    100.0    5 
21/09/20   6:25   13.9   14.0   13.9    92   12.6   9.0     N   0.75  14.0     N   12.3   13.9   12.3  1016.0  0.00  0.00   0.015   0.000   34.7    31   15.1   35.0   5.97  .0706    117    1    100.0    5 
21/09/20   6:30   13.8   13.9   13.8    92   12.6   9.0     N   0.75  13.0     N   12.2   13.9   12.3  1016.1  0.00  0.00   0.016   0.000   34.7    31   15.1   34.9   5.97  .0706    116    1    100.0    5 
21/09/20   6:35   13.8   13.8   13.8    93   12.7   9.0     N   0.75  13.0     N   12.2   13.9   12.3  1016.1  0.00  0.00   0.016   0.000   34.7    31   15.1   34.9   5.97  .0706    116    1    100.0    5 
21/09/20   6:40   13.8   13.8   13.8    93   12.7   9.0     N   0.75  13.0     N   12.2   13.9   12.3  1016.0  0.00  0.00   0.016   0.000   34.7    31   15.1   34.9   5.97  .0706    117    1    100.0    5 
21/09/20   6:45   13.7   13.8   13.7    93   12.6  10.0     N   0.83  16.0     N   11.7   13.8   11.8  1016.0  0.00  0.00   0.016   0.000   34.7    31   15.1   34.9   5.97  .0706    117    1    100.0    5 
21/09/20   6:50   13.8   13.8   13.7    93   12.7  10.0     N   0.83  15.0   NNE   11.8   13.9   11.9  1016.0  0.00  0.00   0.016   0.000   34.7    31   15.1   34.9   5.97  .0706    117    1    100.0    5 
21/09/20   6:55   13.8   13.8   13.7    93   12.7   8.0     N   0.67  12.0   NNE   12.6   13.9   12.7  1016.1  0.00  0.00   0.016   0.000   34.6    31   15.0   34.8   5.98  .0706    115    1    100.0    5 
21/09/20   7:00   13.8   13.8   13.7    93   12.7   9.0     N   0.75  14.0     N   12.2   13.9   12.3  1016.0  0.00  0.00   0.016   0.000   34.6    31   15.0   34.8   5.98  .0706    116    1    100.0    5 
21/09/20   7:05   13.8   13.8   13.7    94   12.8   9.0     N   0.75  12.0     N   12.2   13.9   12.3  1016.0  0.00  0.00   0.016   0.000   34.6    31   15.0   34.8   5.98  .0706    118    1    100.0    5 
21/09/20   7:10   13.7   13.8   13.7    94   12.8   9.0     N   0.75  13.0     N   12.1   13.8   12.2  1015.9  0.00  0.00   0.016   0.000   34.6    31   15.0   34.8   5.98  .0706    117    1    100.0    5 
21/09/20   7:15   13.8   13.8   13.7    94   12.8   9.0     N   0.75  13.0     N   12.2   13.9   12.3  1015.9  0.00  0.00   0.016   0.000   34.6    31   15.0   34.8   5.98  .0706    117    1    100.0    5 
21/09/20   7:20   13.8   13.8   13.7    94   12.8   8.0     N   0.67  12.0   NNE   12.6   13.9   12.7  1015.9  0.00  0.00   0.016   0.000   34.6    31   15.0   34.8   5.98  .0706    117    1    100.0    5 
21/09/20   7:25   13.8   13.8   13.8    94   12.8   8.0     N   0.67  11.0     N   12.6   13.9   12.7  1016.0  0.00  0.00   0.016   0.000   34.6    31   15.0   34.8   5.98  .0706    117    1    100.0    5 
21/09/20   7:30   13.8   13.8   13.8    94   12.9   8.0     N   0.67  12.0   NNW   12.7   13.9   12.8  1016.1  0.00  0.00   0.016   0.000   34.6    31   15.0   34.8   5.98  .0706    115    1    100.0    5 
21/09/20   7:35   13.8   13.9   13.8    94   12.9  10.0     N   0.83  14.0     N   11.9   13.9   12.0  1016.0  0.00  0.00   0.016   0.000   34.5    31   14.9   34.7   5.99  .0707    116    1    100.0    5 
21/09/20   7:40   13.9   13.9   13.8    93   12.8  10.0     N   0.83  16.0   NNW   11.9   14.0   12.1  1016.1  0.00  0.00   0.015   0.000   34.5    31   14.9   34.7   5.99  .0707    117    1    100.0    5 
21/09/20   7:45   13.9   13.9   13.9    93   12.8  10.0     N   0.83  15.0     N   12.0   14.1   12.1  1016.0  0.00  0.00   0.015   0.000   34.5    31   14.9   34.7   5.99  .0707    116    1    100.0    5 
21/09/20   7:50   13.9   13.9   13.9    93   12.8  10.0     N   0.83  14.0     N   12.0   14.1   12.1  1016.1  0.00  0.00   0.015   0.000   34.5    31   14.9   34.7   5.99  .0707    117    1    100.0    5 
21/09/20   7:55   14.0   14.1   13.9    93   12.9   9.0     N   0.75  13.0   NNW   12.4   14.1   12.5  1016.1  0.00  0.00   0.015   0.000   34.4    31   14.9   34.6   5.99  .0707    116    1    100.0    5 
21/09/20   8:00   14.0   14.1   14.0    93   12.9  10.0     N   0.83  15.0     N   12.1   14.1   12.2  1016.1  0.00  0.00   0.015   0.000   34.5    31   14.9   34.7   5.99  .0707    116    1    100.0    5 
21/09/20   8:05   13.9   14.1   13.9    93   12.8  11.0     N   0.92  16.0   NNW   11.7   14.1   11.8  1016.2  0.00  0.00   0.015   0.000   34.4    31   14.9   34.6   5.99  .0707    117    1    100.0    5 
21/09/20   8:10   14.0   14.0   13.9    93   12.9   9.0     N   0.75  16.0     N   12.4   14.1   12.5  1016.1  0.00  0.00   0.015   0.000   34.4    31   14.9   34.6   5.99  .0707    116    1    100.0    5 
21/09/20   8:15   14.0   14.1   13.9    93   12.9  10.0     N   0.83  14.0     N   12.1   14.1   12.2  1016.1  0.00  0.00   0.015   0.000   34.4    31   14.9   34.6   5.99  .0707    117    1    100.0    5 
21/09/20   8:20   14.1   14.1   14.0    94   13.1  11.0     N   0.92  17.0     N   11.8   14.2   11.9  1016.2  0.00  0.00   0.015   0.000   34.4    31   14.9   34.6   5.99  .0707    117    1    100.0    5 
21/09/20   8:25   14.1   14.1   14.1    94   13.1   9.0     N   0.75  15.0   NNE   12.5   14.2   12.6  1016.3  0.00  0.00   0.015   0.000   34.4    31   14.9   34.6   5.99  .0707    117    1    100.0    5 
21/09/20   8:30   14.2   14.2   14.1    94   13.2   9.0     N   0.75  13.0   ENE   12.6   14.3   12.7  1016.3  0.00  0.00   0.014   0.000   34.4    31   14.9   34.6   5.99  .0707    117    1    100.0    5 
21/09/20   8:35   14.2   14.2   14.2    93   13.1   9.0     N   0.75  12.0   NNE   12.7   14.3   12.8  1016.2  0.00  0.00   0.014   0.000   34.4    31   14.9   34.6   5.99  .0707    117    1    100.0    5 
21/09/20   8:40   14.3   14.3   14.2    93   13.2   8.0     N   0.67  11.0     N   13.3   14.4   13.4  1016.3  0.00  0.00   0.014   0.000   34.5    31   14.9   34.7   5.99  .0707    117    1    100.0    5 
21/09/20   8:45   14.4   14.5   14.3    93   13.3   7.0     N   0.58   9.0     N   13.8   14.6   13.9  1016.3  0.00  0.00   0.014   0.000   34.5    31   14.9   34.7   5.99  .0707    116    1    100.0    5 
21/09/20   8:50   14.6   14.6   14.5    93   13.4   7.0     N   0.58  10.0   NNE   13.9   14.7   14.0  1016.3  0.00  0.00   0.013   0.000   34.5    31   14.9   34.7   5.99  .0707    117    1    100.0    5 
21/09/20   8:55   14.7   14.7   14.6    93   13.6   7.0     N   0.58  12.0   NNE   14.1   14.9   14.3  1016.2  0.00  0.00   0.013   0.000   34.5    31   14.9   34.7   5.99  .0707    116    1    100.0    5 
21/09/20   9:00   14.8   14.8   14.7    92   13.5   8.0     N   0.67  12.0     N   13.8   14.9   13.9  1016.3  0.00  0.00   0.012   0.000   34.5    31   14.9   34.7   5.99  .0707    117    1    100.0    5 
21/09/20   9:05   14.8   14.9   14.7    92   13.5   7.0     N   0.58  12.0     N   14.2   15.0   14.4  1016.3  0.00  0.00   0.012   0.000   34.6    31   15.0   34.8   5.98  .0707    116    1    100.0    5 
21/09/20   9:10   15.1   15.1   14.9    92   13.8   6.0     N   0.50  10.0   NNW   14.7   15.2   14.9  1016.4  0.00  0.00   0.011   0.000   34.6    31   15.0   34.8   5.98  .0707    118    1    100.0    5 
21/09/20   9:15   15.2   15.2   15.1    91   13.7   6.0     N   0.50  11.0     N   14.9   15.3   15.1  1016.4  0.00  0.00   0.011   0.000   34.6    31   15.0   34.8   5.98  .0707    116    1    100.0    5 
21/09/20   9:20   15.3   15.3   15.2    91   13.9   4.0     N   0.33   8.0     N   15.3   15.5   15.5  1016.5  0.00  0.00   0.010   0.000   34.6    31   15.0   34.8   5.98  .0707    116    1    100.0    5 
21/09/20   9:25   15.6   15.6   15.3    91   14.1   5.0   NNE   0.42   9.0   ENE   15.6   15.7   15.7  1016.6  0.00  0.00   0.010   0.000   34.6    31   15.0   34.8   5.98  .0707    117    1    100.0    5 
21/09/20   9:30   15.7   15.7   15.6    90   14.0   5.0     N   0.42  10.0   NNE   15.7   15.8   15.8  1016.6  0.00  0.00   0.009   0.000   34.6    31   15.0   34.8   5.98  .0707    117    1    100.0    5 
21/09/20   9:35   15.8   15.8   15.7    90   14.2   4.0     N   0.33   8.0   NNE   15.8   16.0   16.0  1016.7  0.00  0.00   0.009   0.000   34.7    31   15.1   34.9   5.97  .0707    117    1    100.0    5 
21/09/20   9:40   16.1   16.1   15.8    89   14.2   3.0     N   0.25   8.0     N   16.1   16.3   16.3  1016.7  0.00  0.00   0.008   0.000   34.7    31   15.1   34.9   5.97  .0707    116    1    100.0    5 
21/09/20   9:45   16.2   16.2   16.0    89   14.4   4.0     N   0.33   7.0     N   16.2   16.4   16.4  1016.7  0.00  0.00   0.008   0.000   34.7    31   15.1   35.0   5.97  .0706    116    1    100.0    5 
21/09/20   9:50   16.2   16.3   16.1    88   14.2   5.0     N   0.42   7.0     N   16.2   16.4   16.4  1016.6  0.00  0.00   0.007   0.000   34.7    31   15.1   35.0   5.97  .0706    117    1    100.0    5 
21/09/20   9:55   16.4   16.4   16.2    87   14.2   4.0     N   0.33   7.0     N   16.4   16.6   16.6  1016.7  0.00  0.00   0.007   0.000   34.7    31   15.1   35.0   5.97  .0706    117    1    100.0    5 
21/09/20  10:00   16.6   16.6   16.4    87   14.4   2.0     N   0.17   6.0   NNE   16.6   16.8   16.8  1016.8  0.00  0.00   0.006   0.000   34.7    31   15.1   35.0   5.97  .0707    117    1    100.0    5 
21/09/20  10:05   16.8   16.8   16.6    85   14.2   4.0   NNE   0.33   8.0     E   16.8   16.9   16.9  1016.7  0.00  0.00   0.005   0.000   34.7    31   15.1   35.0   5.97  .0706    116    1    100.0    5 
21/09/20  10:10   16.8   16.8   16.8    85   14.3   5.0     N   0.42   8.0   NNW   16.8   17.1   17.1  1016.7  0.00  0.00   0.005   0.000   34.8    31   15.2   35.1   5.97  .0706    117    1    100.0    5 
21/09/20  10:15   16.9   16.9   16.8    84   14.2   7.0     N   0.58  10.0   NNW   16.8   17.1   17.0  1016.7  0.00  0.00   0.005   0.000   34.8    31   15.2   35.1   5.97  .0706    117    1    100.0    5 
21/09/20  10:20   17.1   17.1   16.8    83   14.1   5.0     N   0.42  10.0     N   17.1   17.3   17.3  1016.7  0.00  0.00   0.004   0.000   34.8    31   15.2   35.1   5.96  .0706    117    1    100.0    5 
21/09/20  10:25   17.3   17.3   17.1    82   14.2   4.0   NNE   0.33   8.0     N   17.3   17.6   17.6  1016.6  0.00  0.00   0.003   0.000   34.9    31   15.3   35.2   5.96  .0706    116    1    100.0    5 
21/09/20  10:30   17.6   17.6   17.3    81   14.3   5.0     N   0.42   9.0    NE   17.6   17.9   17.9  1016.6  0.00  0.00   0.003   0.000   34.9    31   15.3   35.2   5.96  .0706    117    1    100.0    5 
21/09/20  10:35   17.9   17.9   17.7    80   14.4   3.0   NNE   0.25   5.0   NNE   17.9   18.2   18.2  1016.7  0.00  0.00   0.002   0.000   34.9    31   15.3   35.2   5.96  .0706    117    1    100.0    5 
21/09/20  10:40   18.2   18.2   17.9    79   14.5   3.0     N   0.25   7.0   ENE   18.2   18.5   18.5  1016.7  0.00  0.00   0.001   0.000   34.9    31   15.3   35.3   5.95  .0706    116    1    100.0    5 
21/09/20  10:45   18.4   18.4   18.1    78   14.5   3.0     N   0.25   7.0   ENE   18.4   18.7   18.7  1016.6  0.00  0.00   0.000   0.000   35.0    31   15.3   35.3   5.95  .0706    117    1    100.0    5 
21/09/20  10:50   18.6   18.6   18.4    77   14.4   3.0     N   0.25   7.0     N   18.6   18.8   18.8  1016.6  0.00  0.00   0.000   0.001   35.0    31   15.3   35.3   5.95  .0706    117    1    100.0    5 
21/09/20  10:55   18.8   18.8   18.6    77   14.7   2.0     N   0.17   4.0     N   18.8   19.1   19.1  1016.6  0.00  0.00   0.000   0.002   35.1    31   15.4   35.4   5.95  .0705    117    1    100.0    5 
21/09/20  11:00   19.1   19.1   18.8    76   14.7   3.0   NNE   0.25   9.0   NNE   19.1   19.4   19.4  1016.5  0.00  0.00   0.000   0.003   35.1    31   15.4   35.5   5.95  .0705    117    1    100.0    5 
21/09/20  11:05   19.3   19.3   19.1    73   14.4   3.0    NE   0.25   8.0    NE   19.3   19.6   19.6  1016.5  0.00  0.00   0.000   0.003   35.1    31   15.4   35.5   5.95  .0705    116    1    100.0    5 
21/09/20  11:10   19.6   19.6   19.3    71   14.2   4.0    NE   0.33   8.0   ENE   19.6   19.9   19.9  1016.5  0.00  0.00   0.000   0.004   35.1    31   15.4   35.5   5.95  .0705    117    1    100.0    5 
21/09/20  11:15   19.8   19.8   19.6    71   14.4   3.0    NE   0.25  10.0   ENE   19.8   20.1   20.1  1016.5  0.00  0.00   0.000   0.005   35.2    31   15.5   35.6   5.94  .0705    116    1    100.0    5 
21/09/20  11:20   19.8   19.8   19.8    71   14.4   4.0     N   0.33   8.0   NNE   19.8   20.2   20.2  1016.5  0.00  0.00   0.000   0.005   35.2    31   15.5   35.6   5.94  .0705    116    1    100.0    5 
21/09/20  11:25   19.9   19.9   19.8    70   14.3   4.0   NNE   0.33   8.0   ENE   19.9   20.3   20.3  1016.5  0.00  0.00   0.000   0.006   35.2    31   15.5   35.6   5.94  .0705    117    1    100.0    5 
21/09/20  11:30   20.1   20.1   19.9    70   14.5   5.0    NE   0.42  10.0   ENE   20.1   20.4   20.4  1016.5  0.00  0.00   0.000   0.006   35.2    31   15.5   35.6   5.94  .0705    117    1    100.0    5 
21/09/20  11:35   20.4   20.4   20.1    69   14.5   4.0   ENE   0.33   8.0     E   20.4   20.6   20.6  1016.5  0.00  0.00   0.000   0.007   35.2    31   15.5   35.7   5.94  .0705    117    1    100.0    5 
21/09/20  11:40   20.4   20.4   20.3    70   14.8   3.0   NNE   0.25   7.0   NNE   20.4   20.7   20.7  1016.5  0.00  0.00   0.000   0.007   35.2    31   15.5   35.7   5.94  .0705    117    1    100.0    5 
21/09/20  11:45   20.6   20.6   20.4    68   14.4   4.0     N   0.33   7.0   NNW   20.6   20.7   20.7  1016.5  0.00  0.00   0.000   0.008   35.2    31   15.5   35.7   5.94  .0705    117    1    100.0    5 
21/09/20  11:50   20.6   20.6   20.5    68   14.5   3.0     N   0.25   7.0   NNE   20.6   20.7   20.7  1016.4  0.00  0.00   0.000   0.008   35.2    31   15.5   35.7   5.94  .0705    117    1    100.0    5 
21/09/20  11:55   20.9   21.0   20.6    67   14.6   2.0    NE   0.17   7.0   ENE   20.9   20.9   20.9  1016.4  0.00  0.00   0.000   0.009   35.2    31   15.5   35.7   5.94  .0705    117    1    100.0    5 
21/09/20  12:00   21.3   21.3   20.9    67   14.9   2.0   ENE   0.17   4.0    NE   21.3   21.2   21.2  1016.4  0.00  0.00   0.000   0.010   35.2    31   15.5   35.7   5.94  .0705    117    1    100.0    5 
21/09/20  12:05   21.4   21.4   21.2    65   14.6   3.0    SE   0.25   7.0     E   21.4   21.3   21.3  1016.4  0.00  0.00   0.000   0.011   35.2    32   16.0   35.8   6.14  .0704    117    1    100.0    5 
21/09/20  12:10   21.7   21.7   21.4    64   14.6   2.0    NE   0.17   6.0     E   21.7   21.6   21.6  1016.3  0.00  0.00   0.000   0.012   35.2    32   16.0   35.8   6.14  .0704    117    1    100.0    5 
21/09/20  12:15   21.2   21.7   21.2    68   15.1   3.0    SE   0.25   6.0     S   21.2   21.2   21.2  1016.4  0.00  0.00   0.000   0.010   35.3    32   16.1   35.9   6.14  .0704    117    1    100.0    5 
21/09/20  12:20   20.3   21.2   20.3    73   15.3   5.0   SSE   0.42   8.0   SSE   20.3   20.8   20.8  1016.4  0.00  0.00   0.000   0.007   35.2    32   16.0   35.8   6.14  .0704    117    1    100.0    5 
21/09/20  12:25   19.9   20.3   19.9    75   15.3   5.0   SSE   0.42   8.0     S   19.9   20.4   20.4  1016.4  0.00  0.00   0.000   0.005   35.3    32   16.1   35.9   6.14  .0704    117    1    100.0    5 
21/09/20  12:30   19.4   19.9   19.4    77   15.3   5.0   SSE   0.42   8.0     S   19.4   19.9   19.9  1016.3  0.00  0.00   0.000   0.004   35.3    32   16.1   36.0   6.14  .0704    116    1    100.0    5 
21/09/20  12:35   19.5   19.5   19.4    77   15.4   4.0   SSE   0.33   7.0   SSE   19.5   20.0   20.0  1016.3  0.00  0.00   0.000   0.004   35.3    32   16.1   36.0   6.14  .0704    116    1    100.0    5 
91054